Observation data for Boys Ranch on 11/19/2019      Previous  Date  Next       Current Mesonet Observations  Soil Data  Daily Summary Page  Observations in Plain Language
KBY1 190600Z 23000KT 03/M02 A30 RMK A01 T00311015  RH  072%=      5-min Rain = 0
KBY1 190601Z 00000KT 03/M02 A30 RMK A01 T00321015  RH  072%=      5-min Rain = 0
KBY1 190602Z 00000KT 03/M02 A30 RMK A01 T00311015  RH  072%=      5-min Rain = 0
KBY1 190603Z 00000KT 03/M02 A30 RMK A01 T00311015  RH  072%=      5-min Rain = 0
KBY1 190604Z 00000KT 03/M02 A30 RMK A01 T00301016  RH  072%=      5-min Rain = 0
KBY1 190605Z 35000KT 03/M01 A30 RMK A01 T00301014  RH  073%=      5-min Rain = 0
KBY1 190606Z 00001KT 03/M01 A30 RMK A01 T00301014  RH  073%=      5-min Rain = 0
KBY1 190607Z 34001KT 03/M01 A30 RMK A01 T00311014  RH  072%=      5-min Rain = 0
KBY1 190608Z 33001KT 03/M02 A30 RMK A01 T00301016  RH  072%=      5-min Rain = 0
KBY1 190609Z 30001KT 03/M02 A30 RMK A01 T00291015  RH  073%=      5-min Rain = 0
KBY1 190610Z 30002KT 03/M01 A30 RMK A01 T00301014  RH  073%=      5-min Rain = 0
KBY1 190611Z 27002KT 03/M01 A30 RMK A01 T00301013  RH  073%=      5-min Rain = 0
KBY1 190612Z 26003KT 03/M01 A30 RMK A01 T00341009  RH  073%=      5-min Rain = 0
KBY1 190613Z 27004KT 04/M01 A30 RMK A01 T00371008  RH  072%=      5-min Rain = 0
KBY1 190614Z 27004KT 04/M01 A30 RMK A01 T00391010  RH  071%=      5-min Rain = 0
KBY1 190615Z 28004KT 04/M01 A30 RMK A01 T00391011  RH  070%=      5-min Rain = 0
KBY1 190616Z 29005KT 04/M01 A30 RMK A01 T00401011  RH  069%=      5-min Rain = 0
KBY1 190617Z 30004KT 04/M01 A30 RMK A01 T00411010  RH  069%=      5-min Rain = 0
KBY1 190618Z 30004KT 04/M01 A30 RMK A01 T00421010  RH  069%=      5-min Rain = 0
KBY1 190619Z 30004KT 04/M01 A30 RMK A01 T00421011  RH  069%=      5-min Rain = 0
KBY1 190620Z 30004KT 04/M01 A30 RMK A01 T00411011  RH  069%=      5-min Rain = 0
KBY1 190621Z 30003KT 04/M01 A30 RMK A01 T00411011  RH  069%=      5-min Rain = 0
KBY1 190622Z 30001KT 04/M01 A30 RMK A01 T00401012  RH  069%=      5-min Rain = 0
KBY1 190623Z 31000KT 04/M01 A30 RMK A01 T00381014  RH  069%=      5-min Rain = 0
KBY1 190624Z 00000KT 03/M02 A30 RMK A01 T00341017  RH  069%=      5-min Rain = 0
KBY1 190625Z 00000KT 03/M02 A30 RMK A01 T00311019  RH  070%=      5-min Rain = 0
KBY1 190626Z 26000KT 03/M02 A30 RMK A01 T00281020  RH  071%=      5-min Rain = 0
KBY1 190627Z 28001KT 03/M02 A30 RMK A01 T00261020  RH  072%=      5-min Rain = 0
KBY1 190628Z 29002KT 02/M02 A30 RMK A01 T00231019  RH  073%=      5-min Rain = 0
KBY1 190629Z 30003KT 03/M01 A30 RMK A01 T00251014  RH  075%=      5-min Rain = 0
KBY1 190630Z 29002KT 03/M01 A30 RMK A01 T00291012  RH  074%=      5-min Rain = 0
KBY1 190631Z 27000KT 03/M01 A30 RMK A01 T00311012  RH  073%=      5-min Rain = 0
KBY1 190632Z 24000KT 03/M01 A30 RMK A01 T00321013  RH  072%=      5-min Rain = 0
KBY1 190633Z 27000KT 03/M01 A30 RMK A01 T00321014  RH  072%=      5-min Rain = 0
KBY1 190634Z 28000KT 03/M02 A30 RMK A01 T00321015  RH  071%=      5-min Rain = 0
KBY1 190635Z 30000KT 03/M02 A30 RMK A01 T00321016  RH  071%=      5-min Rain = 0
KBY1 190636Z 25000KT 03/M02 A30 RMK A01 T00311015  RH  072%=      5-min Rain = 0
KBY1 190637Z 02000KT 03/M01 A30 RMK A01 T00311014  RH  072%=      5-min Rain = 0
KBY1 190638Z 03000KT 03/M01 A30 RMK A01 T00311014  RH  072%=      5-min Rain = 0
KBY1 190639Z 25000KT 03/M01 A30 RMK A01 T00321013  RH  072%=      5-min Rain = 0
KBY1 190640Z 31001KT 03/M01 A30 RMK A01 T00331013  RH  072%=      5-min Rain = 0
KBY1 190641Z 28000KT 04/M01 A30 RMK A01 T00351011  RH  072%=      5-min Rain = 0
KBY1 190642Z 24000KT 04/M01 A30 RMK A01 T00381011  RH  070%=      5-min Rain = 0
KBY1 190643Z 00000KT 04/M01 A30 RMK A01 T00371014  RH  069%=      5-min Rain = 0
KBY1 190644Z 28000KT 04/M02 A30 RMK A01 T00361015  RH  069%=      5-min Rain = 0
KBY1 190645Z 00000KT 04/M01 A30 RMK A01 T00361014  RH  070%=      5-min Rain = 0
KBY1 190646Z 31001KT 04/M01 A30 RMK A01 T00361014  RH  070%=      5-min Rain = 0
KBY1 190647Z 32000KT 03/M02 A30 RMK A01 T00341015  RH  070%=      5-min Rain = 0
KBY1 190648Z 32000KT 03/M02 A30 RMK A01 T00331016  RH  070%=      5-min Rain = 0
KBY1 190649Z 00000KT 03/M02 A30 RMK A01 T00321016  RH  071%=      5-min Rain = 0
KBY1 190650Z 00000KT 03/M02 A30 RMK A01 T00311016  RH  071%=      5-min Rain = 0
KBY1 190651Z 00000KT 03/M02 A30 RMK A01 T00301016  RH  072%=      5-min Rain = 0
KBY1 190652Z 00000KT 03/M02 A30 RMK A01 T00301015  RH  072%=      5-min Rain = 0
KBY1 190653Z 00000KT 03/M02 A30 RMK A01 T00301015  RH  072%=      5-min Rain = 0
KBY1 190654Z 00000KT 03/M02 A30 RMK A01 T00301016  RH  072%=      5-min Rain = 0
KBY1 190655Z 00000KT 03/M02 A30 RMK A01 T00291016  RH  072%=      5-min Rain = 0
KBY1 190656Z 18000KT 03/M02 A3001 RMK A01 T00291016  RH  072%=      5-min Rain = 0
KBY1 190657Z 18001KT 03/M02 A3001 RMK A01 T00281017  RH  072%=      5-min Rain = 0
KBY1 190658Z 16000KT 03/M02 A3001 RMK A01 T00271018  RH  072%=      5-min Rain = 0
KBY1 190659Z 15000KT 03/M02 A3001 RMK A01 T00261016  RH  073%=      5-min Rain = 0
KBY1 190700Z 00000KT 03/M02 A3001 RMK A01 T00261016  RH  073%=      5-min Rain = 0
KBY1 190701Z 01000KT 03/M02 A30 RMK A01 T00271016  RH  074%=      5-min Rain = 0
KBY1 190702Z 35000KT 03/M02 A30 RMK A01 T00271015  RH  074%=      5-min Rain = 0
KBY1 190703Z 35000KT 03/M02 A30 RMK A01 T00271015  RH  074%=      5-min Rain = 0
KBY1 190704Z 04000KT 03/M02 A3001 RMK A01 T00271015  RH  074%=      5-min Rain = 0
KBY1 190705Z 00000KT 03/M02 A3001 RMK A01 T00271016  RH  073%=      5-min Rain = 0
KBY1 190706Z 17000KT 03/M02 A3001 RMK A01 T00281015  RH  073%=      5-min Rain = 0
KBY1 190707Z 16001KT 03/M02 A3001 RMK A01 T00291015  RH  073%=      5-min Rain = 0
KBY1 190708Z 18001KT 03/M02 A3001 RMK A01 T00291015  RH  073%=      5-min Rain = 0
KBY1 190709Z 22000KT 03/M02 A3001 RMK A01 T00281016  RH  073%=      5-min Rain = 0
KBY1 190710Z 18000KT 03/M02 A3001 RMK A01 T00271017  RH  073%=      5-min Rain = 0
KBY1 190711Z 00000KT 03/M02 A3001 RMK A01 T00271016  RH  074%=      5-min Rain = 0
KBY1 190712Z 00000KT 03/M02 A3001 RMK A01 T00271015  RH  074%=      5-min Rain = 0
KBY1 190713Z 00000KT 03/M02 A30 RMK A01 T00281015  RH  073%=      5-min Rain = 0
KBY1 190714Z 00000KT 03/M02 A30 RMK A01 T00291015  RH  073%=      5-min Rain = 0
KBY1 190715Z 00000KT 03/M02 A30 RMK A01 T00291015  RH  073%=      5-min Rain = 0
KBY1 190716Z 35001KT 03/M02 A30 RMK A01 T00301015  RH  072%=      5-min Rain = 0
KBY1 190717Z 34001KT 03/M01 A30 RMK A01 T00311014  RH  072%=      5-min Rain = 0
KBY1 190718Z 33000KT 03/M02 A30 RMK A01 T00311015  RH  072%=      5-min Rain = 0
KBY1 190719Z 00000KT 03/M02 A30 RMK A01 T00301017  RH  071%=      5-min Rain = 0
KBY1 190720Z 00000KT 03/M02 A30 RMK A01 T00291017  RH  072%=      5-min Rain = 0
KBY1 190721Z 00000KT 03/M02 A30 RMK A01 T00281018  RH  072%=      5-min Rain = 0
KBY1 190722Z 00000KT 03/M02 A30 RMK A01 T00261020  RH  072%=      5-min Rain = 0
KBY1 190723Z 00000KT 03/M02 A30 RMK A01 T00251018  RH  073%=      5-min Rain = 0
KBY1 190724Z 00000KT 03/M02 A30 RMK A01 T00251017  RH  074%=      5-min Rain = 0
KBY1 190725Z 14000KT 03/M02 A30 RMK A01 T00251018  RH  073%=      5-min Rain = 0
KBY1 190726Z 14001KT 02/M02 A30 RMK A01 T00241019  RH  073%=      5-min Rain = 0
KBY1 190727Z 15000KT 02/M02 A30 RMK A01 T00221020  RH  073%=      5-min Rain = 0
KBY1 190728Z 19001KT 02/M02 A30 RMK A01 T00191023  RH  073%=      5-min Rain = 0
KBY1 190729Z 00000KT 02/M02 A30 RMK A01 T00171024  RH  074%=      5-min Rain = 0
KBY1 190730Z 00000KT 02/M02 A30 RMK A01 T00151024  RH  075%=      5-min Rain = 0
KBY1 190731Z 00000KT 02/M02 A30 RMK A01 T00151024  RH  075%=      5-min Rain = 0
KBY1 190732Z 00000KT 01/M03 A30 RMK A01 T00131025  RH  076%=      5-min Rain = 0
KBY1 190733Z 29000KT 01/M02 A30 RMK A01 T00131024  RH  076%=      5-min Rain = 0
KBY1 190734Z 00000KT 01/M02 A30 RMK A01 T00121023  RH  077%=      5-min Rain = 0
KBY1 190735Z 34000KT 01/M02 A30 RMK A01 T00121023  RH  078%=      5-min Rain = 0
KBY1 190736Z 00000KT 01/M02 A30 RMK A01 T00111023  RH  078%=      5-min Rain = 0
KBY1 190737Z 00000KT 01/M02 A30 RMK A01 T00111023  RH  078%=      5-min Rain = 0
KBY1 190738Z 00000KT 01/M03 A30 RMK A01 T00101025  RH  078%=      5-min Rain = 0
KBY1 190739Z 10000KT 01/M03 A30 RMK A01 T00091025  RH  078%=      5-min Rain = 0
KBY1 190740Z 00000KT 01/M02 A30 RMK A01 T00081024  RH  079%=      5-min Rain = 0
KBY1 190741Z 30000KT 01/M03 A30 RMK A01 T00081025  RH  079%=      5-min Rain = 0
KBY1 190742Z 31002KT 01/M03 A30 RMK A01 T00081025  RH  079%=      5-min Rain = 0
KBY1 190743Z 31000KT 01/M02 A30 RMK A01 T00071024  RH  079%=      5-min Rain = 0
KBY1 190744Z 30002KT 01/M02 A30 RMK A01 T00071023  RH  080%=      5-min Rain = 0
KBY1 190745Z 31001KT 01/M02 A30 RMK A01 T00071024  RH  080%=      5-min Rain = 0
KBY1 190746Z 35001KT 01/M03 A30 RMK A01 T00071025  RH  079%=      5-min Rain = 0
KBY1 190747Z 34000KT 01/M03 A30 RMK A01 T00051027  RH  079%=      5-min Rain = 0
KBY1 190748Z 32000KT 00/M03 A30 RMK A01 T00041026  RH  080%=      5-min Rain = 0
KBY1 190749Z 00000KT 00/M03 A30 RMK A01 T00041026  RH  080%=      5-min Rain = 0
KBY1 190750Z 31001KT 00/M03 A30 RMK A01 T00031027  RH  080%=      5-min Rain = 0
KBY1 190751Z 33001KT 00/M03 A30 RMK A01 T00031027  RH  080%=      5-min Rain = 0
KBY1 190752Z 34001KT 00/M03 A30 RMK A01 T00031027  RH  081%=      5-min Rain = 0
KBY1 190753Z 34001KT 00/M03 A30 RMK A01 T00031026  RH  081%=      5-min Rain = 0
KBY1 190754Z 34001KT 00/M03 A30 RMK A01 T00031026  RH  081%=      5-min Rain = 0
KBY1 190755Z 30000KT 00/M03 A30 RMK A01 T00031025  RH  081%=      5-min Rain = 0
KBY1 190756Z 31000KT 00/M03 A30 RMK A01 T00031025  RH  081%=      5-min Rain = 0
KBY1 190757Z 00000KT 00/M03 A30 RMK A01 T00031026  RH  081%=      5-min Rain = 0
KBY1 190758Z 00000KT 00/M03 A30 RMK A01 T00031026  RH  081%=      5-min Rain = 0
KBY1 190759Z 00000KT 00/M03 A30 RMK A01 T00021027  RH  081%=      5-min Rain = 0
KBY1 190800Z 35000KT 00/M03 A30 RMK A01 T00021026  RH  081%=      5-min Rain = 0
KBY1 190801Z 35000KT 00/M03 A30 RMK A01 T00011027  RH  081%=      5-min Rain = 0
KBY1 190802Z 00000KT 00/M03 A30 RMK A01 T00011027  RH  082%=      5-min Rain = 0
KBY1 190803Z 34001KT 00/M03 A30 RMK A01 T00021025  RH  082%=      5-min Rain = 0
KBY1 190804Z 33000KT 00/M02 A30 RMK A01 T00031022  RH  083%=      5-min Rain = 0
KBY1 190805Z 00000KT 01/M02 A30 RMK A01 T00061019  RH  083%=      5-min Rain = 0
KBY1 190806Z 20000KT 01/M02 A30 RMK A01 T00071020  RH  082%=      5-min Rain = 0
KBY1 190807Z 25000KT 01/M02 A30 RMK A01 T00071024  RH  080%=      5-min Rain = 0
KBY1 190808Z 24001KT 01/M03 A30 RMK A01 T00061027  RH  079%=      5-min Rain = 0
KBY1 190809Z 26002KT 00/M03 A30 RMK A01 T00031029  RH  079%=      5-min Rain = 0
KBY1 190810Z 25003KT 00/M03 A30 RMK A01 T00031026  RH  081%=      5-min Rain = 0
KBY1 190811Z 24002KT 00/M02 A30 RMK A01 T00041023  RH  082%=      5-min Rain = 0
KBY1 190812Z 25002KT 01/M02 A30 RMK A01 T00051023  RH  082%=      5-min Rain = 0
KBY1 190813Z 24002KT 00/M03 A30 RMK A01 T00041025  RH  081%=      5-min Rain = 0
KBY1 190814Z 25000KT 00/M03 A30 RMK A01 T00031028  RH  080%=      5-min Rain = 0
KBY1 190815Z 25000KT 00/M03 A30 RMK A01 T00011029  RH  080%=      5-min Rain = 0
KBY1 190816Z 00000KT 00/03 A30 RMK A01 T00000-29  RH  081%=      5-min Rain = 0
KBY1 190817Z 28000KT 00/03 A30 RMK A01 T00-00-28  RH  081%=      5-min Rain = 0
KBY1 190818Z 00000KT 00/03 A30 RMK A01 T00-00-27  RH  082%=      5-min Rain = 0
KBY1 190819Z 00000KT 00/M03 A30 RMK A01 T00011026  RH  083%=      5-min Rain = 0
KBY1 190820Z 00000KT 00/M02 A30 RMK A01 T00021024  RH  083%=      5-min Rain = 0
KBY1 190821Z 00000KT 00/M02 A30 RMK A01 T00031023  RH  083%=      5-min Rain = 0
KBY1 190822Z 00000KT 00/M02 A30 RMK A01 T00041023  RH  083%=      5-min Rain = 0
KBY1 190823Z 24000KT 01/M02 A30 RMK A01 T00051021  RH  083%=      5-min Rain = 0
KBY1 190824Z 30000KT 01/M02 A30 RMK A01 T00051022  RH  082%=      5-min Rain = 0
KBY1 190825Z 06000KT 01/M02 A30 RMK A01 T00061022  RH  082%=      5-min Rain = 0
KBY1 190826Z 02001KT 01/M02 A30 RMK A01 T00081020  RH  082%=      5-min Rain = 0
KBY1 190827Z 06000KT 01/M02 A30 RMK A01 T00101020  RH  081%=      5-min Rain = 0
KBY1 190828Z 36001KT 01/M02 A30 RMK A01 T00111020  RH  080%=      5-min Rain = 0
KBY1 190829Z 05001KT 01/M02 A30 RMK A01 T00111020  RH  079%=      5-min Rain = 0
KBY1 190830Z 04000KT 01/M02 A30 RMK A01 T00121020  RH  079%=      5-min Rain = 0
KBY1 190831Z 00000KT 01/M02 A30 RMK A01 T00131017  RH  080%=      5-min Rain = 0
KBY1 190832Z 00000KT 02/M02 A30 RMK A01 T00151017  RH  079%=      5-min Rain = 0
KBY1 190833Z 29000KT 02/M02 A30 RMK A01 T00161017  RH  078%=      5-min Rain = 0
KBY1 190834Z 00000KT 02/M02 A30 RMK A01 T00161020  RH  077%=      5-min Rain = 0
KBY1 190835Z 00000KT 01/M02 A30 RMK A01 T00141024  RH  076%=      5-min Rain = 0
KBY1 190836Z 00000KT 01/M03 A30 RMK A01 T00101028  RH  076%=      5-min Rain = 0
KBY1 190837Z 00000KT 01/M03 A30 RMK A01 T00071029  RH  077%=      5-min Rain = 0
KBY1 190838Z 00000KT 01/M03 A30 RMK A01 T00061026  RH  079%=      5-min Rain = 0
KBY1 190839Z 00000KT 01/M03 A30 RMK A01 T00051025  RH  080%=      5-min Rain = 0
KBY1 190840Z 00000KT 01/M02 A30 RMK A01 T00051024  RH  081%=      5-min Rain = 0
KBY1 190841Z 00000KT 01/M02 A30 RMK A01 T00061023  RH  081%=      5-min Rain = 0
KBY1 190842Z 00000KT 01/M02 A30 RMK A01 T00071021  RH  082%=      5-min Rain = 0
KBY1 190843Z 00000KT 01/M02 A30 RMK A01 T00091019  RH  082%=      5-min Rain = 0
KBY1 190844Z 00000KT 01/M02 A30 RMK A01 T00101018  RH  082%=      5-min Rain = 0
KBY1 190845Z 31000KT 01/M02 A30 RMK A01 T00121017  RH  081%=      5-min Rain = 0
KBY1 190846Z 31001KT 01/M02 A30 RMK A01 T00131019  RH  080%=      5-min Rain = 0
KBY1 190847Z 30001KT 01/M02 A30 RMK A01 T00111023  RH  078%=      5-min Rain = 0
KBY1 190848Z 30001KT 01/M03 A30 RMK A01 T00081027  RH  077%=      5-min Rain = 0
KBY1 190849Z 30000KT 01/M03 A30 RMK A01 T00061028  RH  078%=      5-min Rain = 0
KBY1 190850Z 30000KT 01/M03 A30 RMK A01 T00051027  RH  079%=      5-min Rain = 0
KBY1 190851Z 00000KT 00/M03 A30 RMK A01 T00041026  RH  080%=      5-min Rain = 0
KBY1 190852Z 00000KT 00/M03 A30 RMK A01 T00041026  RH  081%=      5-min Rain = 0
KBY1 190853Z 00000KT 00/M03 A30 RMK A01 T00041025  RH  081%=      5-min Rain = 0
KBY1 190854Z 00000KT 00/M02 A30 RMK A01 T00041024  RH  082%=      5-min Rain = 0
KBY1 190855Z 00000KT 00/M02 A30 RMK A01 T00031024  RH  082%=      5-min Rain = 0
KBY1 190856Z 00000KT 00/M02 A30 RMK A01 T00031023  RH  083%=      5-min Rain = 0
KBY1 190857Z 00000KT 00/M02 A30 RMK A01 T00031024  RH  083%=      5-min Rain = 0
KBY1 190858Z 00000KT 00/M03 A30 RMK A01 T00011025  RH  082%=      5-min Rain = 0
KBY1 190859Z 00000KT 00/M03 A30 RMK A01 T00011026  RH  082%=      5-min Rain = 0
KBY1 190900Z 24000KT 00/03 A2999 RMK A01 T00000-27  RH  082%=      5-min Rain = 0
KBY1 190901Z 24001KT 00/03 A2999 RMK A01 T00-00-26  RH  083%=      5-min Rain = 0
KBY1 190902Z 24000KT M00/M03 A2999 RMK A01 T10011027  RH  083%=      5-min Rain = 0
KBY1 190903Z 24000KT M00/M03 A2999 RMK A01 T10021028  RH  083%=      5-min Rain = 0
KBY1 190904Z 00000KT M00/M03 A2999 RMK A01 T10011027  RH  083%=      5-min Rain = 0
KBY1 190905Z 00000KT M00/M03 A2999 RMK A01 T10021027  RH  083%=      5-min Rain = 0
KBY1 190906Z 00000KT M00/M03 A2999 RMK A01 T10021028  RH  083%=      5-min Rain = 0
KBY1 190907Z 00000KT M00/M03 A2999 RMK A01 T10021028  RH  083%=      5-min Rain = 0
KBY1 190908Z 00000KT M00/M03 A2999 RMK A01 T10021027  RH  084%=      5-min Rain = 0
KBY1 190909Z 00000KT M00/M03 A2999 RMK A01 T10021026  RH  084%=      5-min Rain = 0
KBY1 190910Z 00000KT M00/M02 A2999 RMK A01 T10011024  RH  085%=      5-min Rain = 0
KBY1 190911Z 00000KT 00/02 A2999 RMK A01 T00-00-24  RH  084%=      5-min Rain = 0
KBY1 190912Z 00000KT 00/03 A2999 RMK A01 T00-00-25  RH  084%=      5-min Rain = 0
KBY1 190913Z 00000KT M00/M03 A2999 RMK A01 T10021028  RH  083%=      5-min Rain = 0
KBY1 190914Z 00000KT M00/M03 A2999 RMK A01 T10031029  RH  083%=      5-min Rain = 0
KBY1 190915Z 00000KT M00/M03 A2999 RMK A01 T10041028  RH  084%=      5-min Rain = 0
KBY1 190916Z 24000KT M00/M03 A2999 RMK A01 T10031027  RH  084%=      5-min Rain = 0
KBY1 190917Z 24001KT M00/M03 A2999 RMK A01 T10031027  RH  084%=      5-min Rain = 0
KBY1 190918Z 24001KT M00/M03 A2999 RMK A01 T10041029  RH  083%=      5-min Rain = 0
KBY1 190919Z 24000KT M01/M03 A2999 RMK A01 T10051030  RH  083%=      5-min Rain = 0
KBY1 190920Z 24001KT M01/M03 A2999 RMK A01 T10051028  RH  084%=      5-min Rain = 0
KBY1 190921Z 23001KT M00/M03 A2999 RMK A01 T10041027  RH  085%=      5-min Rain = 0
KBY1 190922Z 23001KT M00/M03 A2999 RMK A01 T10031025  RH  085%=      5-min Rain = 0
KBY1 190923Z 23001KT M00/M03 A2999 RMK A01 T10021025  RH  085%=      5-min Rain = 0
KBY1 190924Z 23001KT M00/M03 A2999 RMK A01 T10021026  RH  084%=      5-min Rain = 0
KBY1 190925Z 22001KT M00/M03 A2998 RMK A01 T10031028  RH  083%=      5-min Rain = 0
KBY1 190926Z 22001KT M01/M03 A2998 RMK A01 T10051030  RH  083%=      5-min Rain = 0
KBY1 190927Z 22001KT M01/M03 A2998 RMK A01 T10061031  RH  083%=      5-min Rain = 0
KBY1 190928Z 21001KT M01/M03 A2998 RMK A01 T10071032  RH  083%=      5-min Rain = 0
KBY1 190929Z 23001KT M01/M03 A2998 RMK A01 T10081032  RH  084%=      5-min Rain = 0
KBY1 190930Z 23001KT M01/M03 A2998 RMK A01 T10081032  RH  084%=      5-min Rain = 0
KBY1 190931Z 24000KT M01/M03 A2998 RMK A01 T10091033  RH  084%=      5-min Rain = 0
KBY1 190932Z 24000KT M01/M03 A2998 RMK A01 T10091033  RH  084%=      5-min Rain = 0
KBY1 190933Z 00000KT M01/M03 A2998 RMK A01 T10101033  RH  084%=      5-min Rain = 0
KBY1 190934Z 00000KT M01/M03 A2998 RMK A01 T10101032  RH  085%=      5-min Rain = 0
KBY1 190935Z 00000KT M01/M03 A2998 RMK A01 T10101032  RH  085%=      5-min Rain = 0
KBY1 190936Z 00000KT M01/M03 A2998 RMK A01 T10101032  RH  085%=      5-min Rain = 0
KBY1 190937Z 01000KT M01/M03 A2998 RMK A01 T10101032  RH  085%=      5-min Rain = 0
KBY1 190938Z 01001KT M01/M03 A2998 RMK A01 T10101031  RH  086%=      5-min Rain = 0
KBY1 190939Z 01001KT M01/M03 A2998 RMK A01 T10101031  RH  086%=      5-min Rain = 0
KBY1 190940Z 01000KT M01/M03 A2998 RMK A01 T10101030  RH  086%=      5-min Rain = 0
KBY1 190941Z 01000KT M01/M03 A2998 RMK A01 T10091030  RH  086%=      5-min Rain = 0
KBY1 190942Z 01000KT M01/M03 A2998 RMK A01 T10091029  RH  086%=      5-min Rain = 0
KBY1 190943Z 02001KT M01/M03 A2998 RMK A01 T10091030  RH  085%=      5-min Rain = 0
KBY1 190944Z 02001KT M01/M03 A2998 RMK A01 T10091030  RH  085%=      5-min Rain = 0
KBY1 190945Z 03001KT M01/M03 A2998 RMK A01 T10091031  RH  085%=      5-min Rain = 0
KBY1 190946Z 03002KT M01/M03 A2998 RMK A01 T10091030  RH  085%=      5-min Rain = 0
KBY1 190947Z 03002KT M01/M03 A2998 RMK A01 T10081030  RH  085%=      5-min Rain = 0
KBY1 190948Z 03001KT M01/M03 A2998 RMK A01 T10081029  RH  085%=      5-min Rain = 0
KBY1 190949Z 03001KT M01/M03 A2998 RMK A01 T10071029  RH  086%=      5-min Rain = 0
KBY1 190950Z 03001KT M01/M03 A2998 RMK A01 T10071027  RH  086%=      5-min Rain = 0
KBY1 190951Z 00000KT M01/M03 A2998 RMK A01 T10051026  RH  086%=      5-min Rain = 0
KBY1 190952Z 00000KT M00/M03 A2998 RMK A01 T10041025  RH  086%=      5-min Rain = 0
KBY1 190953Z 00000KT M00/M03 A2998 RMK A01 T10031025  RH  085%=      5-min Rain = 0
KBY1 190954Z 00000KT M00/M03 A2998 RMK A01 T10041028  RH  084%=      5-min Rain = 0
KBY1 190955Z 00000KT M01/M03 A2998 RMK A01 T10051028  RH  084%=      5-min Rain = 0
KBY1 190956Z 00000KT M01/M03 A2998 RMK A01 T10051029  RH  084%=      5-min Rain = 0
KBY1 190957Z 00000KT M01/M03 A2998 RMK A01 T10051029  RH  084%=      5-min Rain = 0
KBY1 190958Z 00000KT M01/M03 A2998 RMK A01 T10051028  RH  085%=      5-min Rain = 0
KBY1 190959Z 00000KT M01/M03 A2998 RMK A01 T10051027  RH  085%=      5-min Rain = 0
KBY1 191000Z 00000KT M01/M03 A2998 RMK A01 T10051026  RH  085%=      5-min Rain = 0
KBY1 191001Z 00000KT M01/M03 A2998 RMK A01 T10051026  RH  085%=      5-min Rain = 0
KBY1 191002Z 00000KT M01/M03 A2998 RMK A01 T10051027  RH  085%=      5-min Rain = 0
KBY1 191003Z 22000KT M01/M03 A2998 RMK A01 T10051029  RH  084%=      5-min Rain = 0
KBY1 191004Z 22001KT M01/M03 A2997 RMK A01 T10071031  RH  084%=      5-min Rain = 0
KBY1 191005Z 22000KT M01/M03 A2997 RMK A01 T10081032  RH  083%=      5-min Rain = 0
KBY1 191006Z 00000KT M01/M03 A2997 RMK A01 T10091033  RH  084%=      5-min Rain = 0
KBY1 191007Z 00000KT M01/M03 A2997 RMK A01 T10091033  RH  084%=      5-min Rain = 0
KBY1 191008Z 00000KT M01/M03 A2997 RMK A01 T10101034  RH  084%=      5-min Rain = 0
KBY1 191009Z 22000KT M01/M04 A2997 RMK A01 T10111035  RH  084%=      5-min Rain = 0
KBY1 191010Z 22001KT M01/M04 A2997 RMK A01 T10121036  RH  084%=      5-min Rain = 0
KBY1 191011Z 22000KT M01/M04 A2997 RMK A01 T10131037  RH  084%=      5-min Rain = 0
KBY1 191012Z 00000KT M02/M04 A2997 RMK A01 T10151039  RH  084%=      5-min Rain = 0
KBY1 191013Z 00000KT M02/M04 A2997 RMK A01 T10161040  RH  084%=      5-min Rain = 0
KBY1 191014Z 00000KT M02/M04 A2997 RMK A01 T10171040  RH  084%=      5-min Rain = 0
KBY1 191015Z 00000KT M02/M04 A2997 RMK A01 T10181040  RH  085%=      5-min Rain = 0
KBY1 191016Z 00000KT M02/M04 A2997 RMK A01 T10181040  RH  085%=      5-min Rain = 0
KBY1 191017Z 00000KT M02/M04 A2997 RMK A01 T10201041  RH  085%=      5-min Rain = 0
KBY1 191018Z 00000KT M02/M04 A2997 RMK A01 T10211040  RH  086%=      5-min Rain = 0
KBY1 191019Z 00000KT M02/M04 A2997 RMK A01 T10211039  RH  087%=      5-min Rain = 0
KBY1 191020Z 00000KT M02/M04 A2997 RMK A01 T10201038  RH  088%=      5-min Rain = 0
KBY1 191021Z 00000KT M02/M04 A2997 RMK A01 T10201038  RH  088%=      5-min Rain = 0
KBY1 191022Z 00000KT M02/M04 A2997 RMK A01 T10201037  RH  088%=      5-min Rain = 0
KBY1 191023Z 00000KT M02/M04 A2997 RMK A01 T10201037  RH  088%=      5-min Rain = 0
KBY1 191024Z 00000KT M02/M04 A2997 RMK A01 T10211037  RH  089%=      5-min Rain = 0
KBY1 191025Z 00000KT M02/M04 A2997 RMK A01 T10211036  RH  089%=      5-min Rain = 0
KBY1 191026Z 00000KT M02/M04 A2997 RMK A01 T10201036  RH  089%=      5-min Rain = 0
KBY1 191027Z 00000KT M02/M04 A2997 RMK A01 T10201035  RH  089%=      5-min Rain = 0
KBY1 191028Z 00000KT M02/M03 A2997 RMK A01 T10191034  RH  090%=      5-min Rain = 0
KBY1 191029Z 00000KT M02/M03 A2997 RMK A01 T10171031  RH  090%=      5-min Rain = 0
KBY1 191030Z 00000KT M02/M03 A2997 RMK A01 T10161030  RH  090%=      5-min Rain = 0
KBY1 191031Z 00000KT M02/M03 A2997 RMK A01 T10161030  RH  090%=      5-min Rain = 0
KBY1 191032Z 00000KT M02/M03 A2997 RMK A01 T10161031  RH  089%=      5-min Rain = 0
KBY1 191033Z 00000KT M02/M03 A2997 RMK A01 T10151032  RH  089%=      5-min Rain = 0
KBY1 191034Z 00000KT M02/M03 A2997 RMK A01 T10151033  RH  088%=      5-min Rain = 0
KBY1 191035Z 00000KT M02/M03 A2997 RMK A01 T10151033  RH  088%=      5-min Rain = 0
KBY1 191036Z 00000KT M02/M03 A2997 RMK A01 T10151032  RH  088%=      5-min Rain = 0
KBY1 191037Z 22000KT M01/M03 A2997 RMK A01 T10141030  RH  089%=      5-min Rain = 0
KBY1 191038Z 22001KT M01/M03 A2997 RMK A01 T10141030  RH  089%=      5-min Rain = 0
KBY1 191039Z 22001KT M01/M03 A2997 RMK A01 T10141030  RH  088%=      5-min Rain = 0
KBY1 191040Z 23001KT M01/M03 A2997 RMK A01 T10141031  RH  088%=      5-min Rain = 0
KBY1 191041Z 23001KT M01/M03 A2997 RMK A01 T10141032  RH  088%=      5-min Rain = 0
KBY1 191042Z 23001KT M01/M03 A2997 RMK A01 T10141032  RH  088%=      5-min Rain = 0
KBY1 191043Z 23000KT M01/M03 A2997 RMK A01 T10141031  RH  088%=      5-min Rain = 0
KBY1 191044Z 23000KT M01/M03 A2997 RMK A01 T10141032  RH  088%=      5-min Rain = 0
KBY1 191045Z 31000KT M02/M03 A2997 RMK A01 T10151033  RH  087%=      5-min Rain = 0
KBY1 191046Z 30001KT M02/M03 A2997 RMK A01 T10151033  RH  087%=      5-min Rain = 0
KBY1 191047Z 28001KT M02/M03 A2997 RMK A01 T10151033  RH  088%=      5-min Rain = 0
KBY1 191048Z 28002KT M02/M03 A2997 RMK A01 T10151033  RH  088%=      5-min Rain = 0
KBY1 191049Z 29004KT M01/M03 A2997 RMK A01 T10141031  RH  089%=      5-min Rain = 0
KBY1 191050Z 29005KT M01/M03 A2997 RMK A01 T10121027  RH  090%=      5-min Rain = 0
KBY1 191051Z 29005KT M01/M02 A2997 RMK A01 T10081023  RH  090%=      5-min Rain = 0
KBY1 191052Z 29004KT M01/M02 A2997 RMK A01 T10051021  RH  089%=      5-min Rain = 0
KBY1 191053Z 29003KT M00/M02 A2997 RMK A01 T10031021  RH  088%=      5-min Rain = 0
KBY1 191054Z 29001KT M00/M02 A2997 RMK A01 T10021021  RH  087%=      5-min Rain = 0
KBY1 191055Z 27000KT M00/M02 A2997 RMK A01 T10021022  RH  086%=      5-min Rain = 0
KBY1 191056Z 00000KT M00/M02 A2997 RMK A01 T10021024  RH  085%=      5-min Rain = 0
KBY1 191057Z 00000KT M00/M03 A2997 RMK A01 T10031026  RH  084%=      5-min Rain = 0
KBY1 191058Z 00000KT M00/M03 A2997 RMK A01 T10031027  RH  084%=      5-min Rain = 0
KBY1 191059Z 13000KT M00/M03 A2997 RMK A01 T10041027  RH  084%=      5-min Rain = 0
KBY1 191100Z 11000KT M00/M03 A2997 RMK A01 T10041026  RH  085%=      5-min Rain = 0
KBY1 191101Z 05001KT M00/M03 A2997 RMK A01 T10041027  RH  085%=      5-min Rain = 0
KBY1 191102Z 04000KT M01/M03 A2997 RMK A01 T10051028  RH  085%=      5-min Rain = 0
KBY1 191103Z 00000KT M01/M03 A2997 RMK A01 T10051027  RH  085%=      5-min Rain = 0
KBY1 191104Z 33000KT M01/M03 A2997 RMK A01 T10051027  RH  085%=      5-min Rain = 0
KBY1 191105Z 00000KT M00/M03 A2997 RMK A01 T10041026  RH  085%=      5-min Rain = 0
KBY1 191106Z 00000KT M00/M03 A2997 RMK A01 T10031025  RH  085%=      5-min Rain = 0
KBY1 191107Z 26000KT M00/M03 A2997 RMK A01 T10031025  RH  085%=      5-min Rain = 0
KBY1 191108Z 24000KT M00/M03 A2997 RMK A01 T10021025  RH  085%=      5-min Rain = 0
KBY1 191109Z 00000KT M00/M03 A2997 RMK A01 T10021026  RH  084%=      5-min Rain = 0
KBY1 191110Z 31000KT M00/M03 A2997 RMK A01 T10041030  RH  083%=      5-min Rain = 0
KBY1 191111Z 00000KT M01/M03 A2997 RMK A01 T10051030  RH  083%=      5-min Rain = 0
KBY1 191112Z 26000KT M01/M03 A2997 RMK A01 T10071032  RH  084%=      5-min Rain = 0
KBY1 191113Z 27001KT M01/M03 A2997 RMK A01 T10071031  RH  084%=      5-min Rain = 0
KBY1 191114Z 28000KT M01/M03 A2997 RMK A01 T10081031  RH  085%=      5-min Rain = 0
KBY1 191115Z 30001KT M01/M03 A2997 RMK A01 T10091031  RH  085%=      5-min Rain = 0
KBY1 191116Z 29000KT M01/M03 A2997 RMK A01 T10091031  RH  085%=      5-min Rain = 0
KBY1 191117Z 31000KT M01/M03 A2997 RMK A01 T10091032  RH  085%=      5-min Rain = 0
KBY1 191118Z 29002KT M01/M03 A2997 RMK A01 T10101032  RH  085%=      5-min Rain = 0
KBY1 191119Z 28002KT M01/M03 A2997 RMK A01 T10101032  RH  085%=      5-min Rain = 0
KBY1 191120Z 27003KT M01/M03 A2996 RMK A01 T10091029  RH  087%=      5-min Rain = 0
KBY1 191121Z 28004KT M01/M02 A2997 RMK A01 T10061023  RH  088%=      5-min Rain = 0
KBY1 191122Z 26003KT M00/M02 A2997 RMK A01 T10021019  RH  088%=      5-min Rain = 0
KBY1 191123Z 28004KT 00/02 A2997 RMK A01 T00000-19  RH  087%=      5-min Rain = 0
KBY1 191124Z 27003KT 00/M02 A2997 RMK A01 T00021020  RH  085%=      5-min Rain = 0
KBY1 191125Z 27003KT 00/M02 A2997 RMK A01 T00021022  RH  084%=      5-min Rain = 0
KBY1 191126Z 29003KT 00/M02 A2997 RMK A01 T00021022  RH  084%=      5-min Rain = 0
KBY1 191127Z 30003KT 00/M02 A2997 RMK A01 T00021022  RH  084%=      5-min Rain = 0
KBY1 191128Z 30005KT 00/M02 A2997 RMK A01 T00031022  RH  084%=      5-min Rain = 0
KBY1 191129Z 30007KT 00/M02 A2997 RMK A01 T00031022  RH  083%=      5-min Rain = 0
KBY1 191130Z 29007KT 00/M02 A2997 RMK A01 T00041022  RH  083%=      5-min Rain = 0
KBY1 191131Z 29006KT 00/M02 A2996 RMK A01 T00041022  RH  082%=      5-min Rain = 0
KBY1 191132Z 29006KT 01/M02 A2996 RMK A01 T00051023  RH  082%=      5-min Rain = 0
KBY1 191133Z 29005KT 01/M02 A2996 RMK A01 T00051024  RH  081%=      5-min Rain = 0
KBY1 191134Z 29003KT 00/M02 A2996 RMK A01 T00041024  RH  081%=      5-min Rain = 0
KBY1 191135Z 29002KT 00/M02 A2996 RMK A01 T00041024  RH  081%=      5-min Rain = 0
KBY1 191136Z 30001KT 00/M02 A2996 RMK A01 T00041024  RH  081%=      5-min Rain = 0
KBY1 191137Z 30002KT 00/M03 A2996 RMK A01 T00031025  RH  081%=      5-min Rain = 0
KBY1 191138Z 28001KT 00/M03 A2996 RMK A01 T00031025  RH  082%=      5-min Rain = 0
KBY1 191139Z 28001KT 00/M03 A2996 RMK A01 T00021025  RH  082%=      5-min Rain = 0
KBY1 191140Z 29001KT 00/M03 A2996 RMK A01 T00021025  RH  082%=      5-min Rain = 0
KBY1 191141Z 00000KT 00/M03 A2996 RMK A01 T00011026  RH  082%=      5-min Rain = 0
KBY1 191142Z 00000KT 00/03 A2996 RMK A01 T00000-26  RH  083%=      5-min Rain = 0
KBY1 191143Z 06000KT 00/03 A2995 RMK A01 T00-00-26  RH  083%=      5-min Rain = 0
KBY1 191144Z 00000KT 00/03 A2995 RMK A01 T00000-25  RH  083%=      5-min Rain = 0
KBY1 191145Z 00000KT 00/M03 A2995 RMK A01 T00011025  RH  083%=      5-min Rain = 0
KBY1 191146Z 00000KT 00/M03 A2995 RMK A01 T00011026  RH  083%=      5-min Rain = 0
KBY1 191147Z 00000KT 00/03 A2995 RMK A01 T00-00-27  RH  082%=      5-min Rain = 0
KBY1 191148Z 00000KT M00/M03 A2995 RMK A01 T10011028  RH  082%=      5-min Rain = 0
KBY1 191149Z 00000KT M00/M03 A2995 RMK A01 T10021029  RH  082%=      5-min Rain = 0
KBY1 191150Z 30000KT M00/M03 A2995 RMK A01 T10031029  RH  082%=      5-min Rain = 0
KBY1 191151Z 00000KT M00/M03 A2995 RMK A01 T10031029  RH  083%=      5-min Rain = 0
KBY1 191152Z 32000KT M00/M03 A2995 RMK A01 T10031028  RH  083%=      5-min Rain = 0
KBY1 191153Z 00000KT M00/M03 A2995 RMK A01 T10041029  RH  083%=      5-min Rain = 0
KBY1 191154Z 33000KT M01/M03 A2995 RMK A01 T10051029  RH  084%=      5-min Rain = 0
KBY1 191155Z 00000KT M01/M03 A2995 RMK A01 T10051028  RH  084%=      5-min Rain = 0
KBY1 191156Z 00000KT M01/M03 A2995 RMK A01 T10051028  RH  084%=      5-min Rain = 0
KBY1 191157Z 33000KT M00/M03 A2995 RMK A01 T10041027  RH  084%=      5-min Rain = 0
KBY1 191158Z 32001KT M01/M03 A2995 RMK A01 T10051027  RH  085%=      5-min Rain = 0
KBY1 191159Z 31001KT M00/M03 A2995 RMK A01 T10041027  RH  085%=      5-min Rain = 0
KBY1 191200Z 32002KT M00/M03 A2995 RMK A01 T10041027  RH  084%=      5-min Rain = 0
KBY1 191201Z 32002KT M00/M03 A2995 RMK A01 T10041027  RH  084%=      5-min Rain = 0
KBY1 191202Z 30002KT M00/M03 A2995 RMK A01 T10031027  RH  084%=      5-min Rain = 0
KBY1 191203Z 30002KT M00/M03 A2996 RMK A01 T10041028  RH  084%=      5-min Rain = 0
KBY1 191204Z 29002KT M00/M03 A2996 RMK A01 T10041029  RH  084%=      5-min Rain = 0
KBY1 191205Z 29001KT M01/M03 A2996 RMK A01 T10051029  RH  083%=      5-min Rain = 0
KBY1 191206Z 29002KT M01/M03 A2996 RMK A01 T10051030  RH  083%=      5-min Rain = 0
KBY1 191207Z 28001KT M01/M03 A2996 RMK A01 T10061030  RH  083%=      5-min Rain = 0
KBY1 191208Z 27002KT M01/M03 A2996 RMK A01 T10061030  RH  084%=      5-min Rain = 0
KBY1 191209Z 27002KT M01/M03 A2996 RMK A01 T10051028  RH  085%=      5-min Rain = 0
KBY1 191210Z 26001KT M01/M03 A2996 RMK A01 T10061030  RH  084%=      5-min Rain = 0
KBY1 191211Z 24001KT M01/M03 A2995 RMK A01 T10081033  RH  083%=      5-min Rain = 0
KBY1 191212Z 24002KT M01/M03 A2995 RMK A01 T10091032  RH  084%=      5-min Rain = 0
KBY1 191213Z 25003KT M01/M03 A2995 RMK A01 T10091030  RH  085%=      5-min Rain = 0
KBY1 191214Z 25002KT M01/M03 A2995 RMK A01 T10081029  RH  086%=      5-min Rain = 0
KBY1 191215Z 24002KT M01/M03 A2995 RMK A01 T10081030  RH  086%=      5-min Rain = 0
KBY1 191216Z 24001KT M01/M03 A2995 RMK A01 T10081030  RH  086%=      5-min Rain = 0
KBY1 191217Z 25001KT M01/M03 A2995 RMK A01 T10091031  RH  085%=      5-min Rain = 0
KBY1 191218Z 26001KT M01/M03 A2995 RMK A01 T10101032  RH  085%=      5-min Rain = 0
KBY1 191219Z 26001KT M01/M03 A2995 RMK A01 T10101031  RH  085%=      5-min Rain = 0
KBY1 191220Z 26001KT M01/M03 A2995 RMK A01 T10101031  RH  086%=      5-min Rain = 0
KBY1 191221Z 28001KT M01/M03 A2995 RMK A01 T10111033  RH  085%=      5-min Rain = 0
KBY1 191222Z 29001KT M01/M04 A2995 RMK A01 T10131036  RH  084%=      5-min Rain = 0
KBY1 191223Z 30001KT M01/M04 A2995 RMK A01 T10141038  RH  084%=      5-min Rain = 0
KBY1 191224Z 31001KT M02/M04 A2995 RMK A01 T10171040  RH  084%=      5-min Rain = 0
KBY1 191225Z 31001KT M02/M04 A2995 RMK A01 T10171039  RH  085%=      5-min Rain = 0
KBY1 191226Z 32001KT M02/M04 A2995 RMK A01 T10181037  RH  086%=      5-min Rain = 0
KBY1 191227Z 33001KT M02/M04 A2995 RMK A01 T10181037  RH  087%=      5-min Rain = 0
KBY1 191228Z 29000KT M02/M04 A2995 RMK A01 T10181036  RH  088%=      5-min Rain = 0
KBY1 191229Z 00000KT M02/M04 A2995 RMK A01 T10181035  RH  088%=      5-min Rain = 0
KBY1 191230Z 00000KT M02/M04 A2995 RMK A01 T10181035  RH  088%=      5-min Rain = 0
KBY1 191231Z 00000KT M02/M04 A2995 RMK A01 T10201039  RH  087%=      5-min Rain = 0
KBY1 191232Z 00000KT M02/M04 A2995 RMK A01 T10211041  RH  087%=      5-min Rain = 0
KBY1 191233Z 00000KT M02/M04 A2995 RMK A01 T10231043  RH  086%=      5-min Rain = 0
KBY1 191234Z 00000KT M02/M04 A2995 RMK A01 T10231043  RH  086%=      5-min Rain = 0
KBY1 191235Z 00000KT M02/M04 A2995 RMK A01 T10241043  RH  087%=      5-min Rain = 0
KBY1 191236Z 00000KT M02/M04 A2995 RMK A01 T10241042  RH  087%=      5-min Rain = 0
KBY1 191237Z 00000KT M03/M04 A2995 RMK A01 T10251042  RH  088%=      5-min Rain = 0
KBY1 191238Z 00000KT M03/M04 A2995 RMK A01 T10251041  RH  088%=      5-min Rain = 0
KBY1 191239Z 00000KT M02/M04 A2995 RMK A01 T10241039  RH  089%=      5-min Rain = 0
KBY1 191240Z 00000KT M02/M04 A2995 RMK A01 T10221036  RH  090%=      5-min Rain = 0
KBY1 191241Z 00000KT M02/M04 A2995 RMK A01 T10221035  RH  091%=      5-min Rain = 0
KBY1 191242Z 32000KT M02/M04 A2995 RMK A01 T10231037  RH  090%=      5-min Rain = 0
KBY1 191243Z 33001KT M02/M04 A2995 RMK A01 T10241039  RH  089%=      5-min Rain = 0
KBY1 191244Z 34001KT M02/M04 A2995 RMK A01 T10231038  RH  090%=      5-min Rain = 0
KBY1 191245Z 34001KT M02/M04 A2995 RMK A01 T10221036  RH  090%=      5-min Rain = 0
KBY1 191246Z 33000KT M02/M04 A2995 RMK A01 T10221036  RH  090%=      5-min Rain = 0
KBY1 191247Z 00000KT M02/M04 A2995 RMK A01 T10231037  RH  090%=      5-min Rain = 0
KBY1 191248Z 34000KT M02/M04 A2995 RMK A01 T10231038  RH  090%=      5-min Rain = 0
KBY1 191249Z 34000KT M02/M04 A2995 RMK A01 T10241039  RH  089%=      5-min Rain = 0
KBY1 191250Z 00000KT M03/M04 A2995 RMK A01 T10251040  RH  089%=      5-min Rain = 0
KBY1 191251Z 20001KT M03/M04 A2995 RMK A01 T10251040  RH  090%=      5-min Rain = 0
KBY1 191252Z 20001KT M03/M04 A2995 RMK A01 T10261040  RH  090%=      5-min Rain = 0
KBY1 191253Z 20000KT M03/M04 A2995 RMK A01 T10261040  RH  090%=      5-min Rain = 0
KBY1 191254Z 24001KT M03/M04 A2995 RMK A01 T10261039  RH  091%=      5-min Rain = 0
KBY1 191255Z 24002KT M03/M04 A2995 RMK A01 T10261039  RH  091%=      5-min Rain = 0
KBY1 191256Z 23001KT M03/M04 A2994 RMK A01 T10261039  RH  091%=      5-min Rain = 0
KBY1 191257Z 22001KT M03/M04 A2994 RMK A01 T10261039  RH  091%=      5-min Rain = 0
KBY1 191258Z 21001KT M03/M04 A2994 RMK A01 T10261039  RH  091%=      5-min Rain = 0
KBY1 191259Z 20001KT M03/M04 A2994 RMK A01 T10251037  RH  092%=      5-min Rain = 0
KBY1 191300Z 20001KT M02/M04 A2994 RMK A01 T10241036  RH  092%=      5-min Rain = 0
KBY1 191301Z 20000KT M02/M04 A2994 RMK A01 T10241035  RH  092%=      5-min Rain = 0
KBY1 191302Z 00000KT M02/M04 A2994 RMK A01 T10241036  RH  091%=      5-min Rain = 0
KBY1 191303Z 00000KT M02/M04 A2994 RMK A01 T10241037  RH  091%=      5-min Rain = 0
KBY1 191304Z 00000KT M02/M04 A2994 RMK A01 T10241037  RH  091%=      5-min Rain = 0
KBY1 191305Z 00000KT M02/M04 A2994 RMK A01 T10241037  RH  091%=      5-min Rain = 0
KBY1 191306Z 00000KT M03/M04 A2994 RMK A01 T10251039  RH  090%=      5-min Rain = 0
KBY1 191307Z 00000KT M03/M04 A2994 RMK A01 T10261040  RH  090%=      5-min Rain = 0
KBY1 191308Z 00000KT M03/M04 A2994 RMK A01 T10261040  RH  090%=      5-min Rain = 0
KBY1 191309Z 00000KT M03/M04 A2994 RMK A01 T10261040  RH  091%=      5-min Rain = 0
KBY1 191310Z 00000KT M03/M04 A2994 RMK A01 T10261038  RH  091%=      5-min Rain = 0
KBY1 191311Z 00000KT M03/M04 A2994 RMK A01 T10251036  RH  092%=      5-min Rain = 0
KBY1 191312Z 00000KT M02/M03 A2994 RMK A01 T10231034  RH  092%=      5-min Rain = 0
KBY1 191313Z 03000KT M02/M03 A2994 RMK A01 T10221033  RH  092%=      5-min Rain = 0
KBY1 191314Z 03001KT M02/M03 A2994 RMK A01 T10211032  RH  092%=      5-min Rain = 0
KBY1 191315Z 03001KT M02/M03 A2994 RMK A01 T10211032  RH  092%=      5-min Rain = 0
KBY1 191316Z 04001KT M02/M03 A2994 RMK A01 T10201032  RH  091%=      5-min Rain = 0
KBY1 191317Z 04001KT M02/M03 A2994 RMK A01 T10201033  RH  091%=      5-min Rain = 0
KBY1 191318Z 03001KT M02/M03 A2994 RMK A01 T10201034  RH  090%=      5-min Rain = 0
KBY1 191319Z 02001KT M02/M04 A2994 RMK A01 T10201035  RH  090%=      5-min Rain = 0
KBY1 191320Z 03002KT M02/M04 A2994 RMK A01 T10201035  RH  089%=      5-min Rain = 0
KBY1 191321Z 04002KT M02/M03 A2994 RMK A01 T10201034  RH  090%=      5-min Rain = 0
KBY1 191322Z 04002KT M02/M03 A2994 RMK A01 T10181033  RH  090%=      5-min Rain = 0
KBY1 191323Z 04001KT M02/M03 A2994 RMK A01 T10171032  RH  090%=      5-min Rain = 0
KBY1 191324Z 04001KT M02/M03 A2994 RMK A01 T10171032  RH  089%=      5-min Rain = 0
KBY1 191325Z 04001KT M02/M03 A2994 RMK A01 T10171032  RH  089%=      5-min Rain = 0
KBY1 191326Z 04001KT M02/M03 A2994 RMK A01 T10161032  RH  089%=      5-min Rain = 0
KBY1 191327Z 04001KT M02/M03 A2994 RMK A01 T10161031  RH  089%=      5-min Rain = 0
KBY1 191328Z 00000KT M02/M03 A2994 RMK A01 T10161032  RH  089%=      5-min Rain = 0
KBY1 191329Z 00000KT M02/M03 A2994 RMK A01 T10161032  RH  089%=      5-min Rain = 0
KBY1 191330Z 34000KT M02/M03 A2994 RMK A01 T10151031  RH  089%=      5-min Rain = 0
KBY1 191331Z 33001KT M02/M03 A2994 RMK A01 T10151031  RH  089%=      5-min Rain = 0
KBY1 191332Z 32001KT M02/M03 A2994 RMK A01 T10151031  RH  089%=      5-min Rain = 0
KBY1 191333Z 33001KT M02/M03 A2994 RMK A01 T10151031  RH  089%=      5-min Rain = 0
KBY1 191334Z 33001KT M02/M03 A2994 RMK A01 T10151032  RH  089%=      5-min Rain = 0
KBY1 191335Z 35001KT M02/M03 A2994 RMK A01 T10151031  RH  089%=      5-min Rain = 0
KBY1 191336Z 35001KT M01/M03 A2994 RMK A01 T10141030  RH  089%=      5-min Rain = 0
KBY1 191337Z 35001KT M01/M03 A2994 RMK A01 T10131029  RH  089%=      5-min Rain = 0
KBY1 191338Z 34000KT M01/M03 A2994 RMK A01 T10121028  RH  089%=      5-min Rain = 0
KBY1 191339Z 23000KT M01/M03 A2994 RMK A01 T10131031  RH  087%=      5-min Rain = 0
KBY1 191340Z 00000KT M01/M03 A2994 RMK A01 T10141034  RH  087%=      5-min Rain = 0
KBY1 191341Z 00000KT M02/M03 A2994 RMK A01 T10151034  RH  087%=      5-min Rain = 0
KBY1 191342Z 20000KT M02/M04 A2994 RMK A01 T10171037  RH  086%=      5-min Rain = 0
KBY1 191343Z 21001KT M02/M04 A2994 RMK A01 T10191041  RH  085%=      5-min Rain = 0
KBY1 191344Z 22002KT M02/M04 A2994 RMK A01 T10221044  RH  085%=      5-min Rain = 0
KBY1 191345Z 22002KT M02/M04 A2994 RMK A01 T10241044  RH  086%=      5-min Rain = 0
KBY1 191346Z 22001KT M03/M04 A2994 RMK A01 T10261044  RH  087%=      5-min Rain = 0
KBY1 191347Z 21001KT M03/M04 A2994 RMK A01 T10261043  RH  088%=      5-min Rain = 0
KBY1 191348Z 22003KT M03/M04 A2994 RMK A01 T10251041  RH  089%=      5-min Rain = 0
KBY1 191349Z 22002KT M03/M04 A2994 RMK A01 T10251040  RH  089%=      5-min Rain = 0
KBY1 191350Z 22000KT M03/M04 A2994 RMK A01 T10251040  RH  090%=      5-min Rain = 0
KBY1 191351Z 20001KT M03/M04 A2994 RMK A01 T10251038  RH  090%=      5-min Rain = 0
KBY1 191352Z 22001KT M02/M04 A2994 RMK A01 T10231037  RH  090%=      5-min Rain = 0
KBY1 191353Z 22001KT M02/M04 A2994 RMK A01 T10221035  RH  091%=      5-min Rain = 0
KBY1 191354Z 23001KT M02/M03 A2994 RMK A01 T10211034  RH  090%=      5-min Rain = 0
KBY1 191355Z 23001KT M02/M03 A2994 RMK A01 T10201034  RH  090%=      5-min Rain = 0
KBY1 191356Z 22002KT M02/M03 A2994 RMK A01 T10191034  RH  090%=      5-min Rain = 0
KBY1 191357Z 22001KT M02/M03 A2994 RMK A01 T10191034  RH  089%=      5-min Rain = 0
KBY1 191358Z 23001KT M02/M03 A2994 RMK A01 T10171033  RH  089%=      5-min Rain = 0
KBY1 191359Z 23001KT M02/M03 A2994 RMK A01 T10161031  RH  089%=      5-min Rain = 0
KBY1 191400Z 24002KT M02/M03 A2994 RMK A01 T10151031  RH  089%=      5-min Rain = 0
KBY1 191401Z 24002KT M01/M03 A2994 RMK A01 T10141030  RH  089%=      5-min Rain = 0
KBY1 191402Z 25002KT M01/M03 A2994 RMK A01 T10121029  RH  088%=      5-min Rain = 0
KBY1 191403Z 26003KT M01/M03 A2994 RMK A01 T10111028  RH  088%=      5-min Rain = 0
KBY1 191404Z 28002KT M01/M03 A2994 RMK A01 T10101028  RH  088%=      5-min Rain = 0
KBY1 191405Z 27002KT M01/M03 A2994 RMK A01 T10071026  RH  087%=      5-min Rain = 0
KBY1 191406Z 27002KT M01/M03 A2994 RMK A01 T10061025  RH  087%=      5-min Rain = 0
KBY1 191407Z 27002KT M00/M02 A2994 RMK A01 T10041024  RH  086%=      5-min Rain = 0
KBY1 191408Z 26002KT M00/M02 A2994 RMK A01 T10021023  RH  086%=      5-min Rain = 0
KBY1 191409Z 26002KT 00/02 A2994 RMK A01 T00-00-22  RH  086%=      5-min Rain = 0
KBY1 191410Z 27003KT 00/M02 A2994 RMK A01 T00011022  RH  084%=      5-min Rain = 0
KBY1 191411Z 26002KT 00/M02 A2994 RMK A01 T00021023  RH  083%=      5-min Rain = 0
KBY1 191412Z 27001KT 00/M02 A2994 RMK A01 T00021024  RH  083%=      5-min Rain = 0
KBY1 191413Z 27001KT 00/M02 A2994 RMK A01 T00021024  RH  082%=      5-min Rain = 0
KBY1 191414Z 27001KT 00/M02 A2994 RMK A01 T00031024  RH  082%=      5-min Rain = 0
KBY1 191415Z 26001KT 00/M02 A2994 RMK A01 T00041023  RH  082%=      5-min Rain = 0
KBY1 191416Z 27001KT 01/M02 A2994 RMK A01 T00061022  RH  082%=      5-min Rain = 0
KBY1 191417Z 29000KT 01/M02 A2994 RMK A01 T00071022  RH  081%=      5-min Rain = 0
KBY1 191418Z 31000KT 01/M02 A2994 RMK A01 T00081022  RH  081%=      5-min Rain = 0
KBY1 191419Z 00000KT 01/M02 A2994 RMK A01 T00091020  RH  081%=      5-min Rain = 0
KBY1 191420Z 00000KT 01/M02 A2994 RMK A01 T00111020  RH  080%=      5-min Rain = 0
KBY1 191421Z 00000KT 01/M02 A2994 RMK A01 T00121021  RH  079%=      5-min Rain = 0
KBY1 191422Z 00000KT 01/M02 A2994 RMK A01 T00141019  RH  078%=      5-min Rain = 0
KBY1 191423Z 24000KT 02/M02 A2994 RMK A01 T00151020  RH  078%=      5-min Rain = 0
KBY1 191424Z 24000KT 02/M02 A2994 RMK A01 T00161020  RH  077%=      5-min Rain = 0
KBY1 191425Z 23000KT 02/M02 A2994 RMK A01 T00161020  RH  077%=      5-min Rain = 0
KBY1 191426Z 21000KT 02/M02 A2994 RMK A01 T00171019  RH  077%=      5-min Rain = 0
KBY1 191427Z 21000KT 02/M02 A2994 RMK A01 T00181019  RH  076%=      5-min Rain = 0
KBY1 191428Z 22001KT 02/M02 A2994 RMK A01 T00201018  RH  076%=      5-min Rain = 0
KBY1 191429Z 22001KT 02/M02 A2994 RMK A01 T00201017  RH  076%=      5-min Rain = 0
KBY1 191430Z 21001KT 02/M02 A2994 RMK A01 T00211017  RH  076%=      5-min Rain = 0
KBY1 191431Z 20001KT 02/M02 A2994 RMK A01 T00211017  RH  076%=      5-min Rain = 0
KBY1 191432Z 17000KT 02/M02 A2994 RMK A01 T00211017  RH  076%=      5-min Rain = 0
KBY1 191433Z 18001KT 02/M02 A2994 RMK A01 T00211017  RH  076%=      5-min Rain = 0
KBY1 191434Z 18001KT 02/M02 A2994 RMK A01 T00221016  RH  076%=      5-min Rain = 0
KBY1 191435Z 17001KT 02/M02 A2994 RMK A01 T00231016  RH  076%=      5-min Rain = 0
KBY1 191436Z 17001KT 02/M02 A2994 RMK A01 T00231016  RH  075%=      5-min Rain = 0
KBY1 191437Z 15000KT 02/M02 A2994 RMK A01 T00241015  RH  075%=      5-min Rain = 0
KBY1 191438Z 14002KT 03/M02 A2994 RMK A01 T00251015  RH  075%=      5-min Rain = 0
KBY1 191439Z 15001KT 02/M02 A2994 RMK A01 T00241016  RH  075%=      5-min Rain = 0
KBY1 191440Z 13001KT 03/M02 A2994 RMK A01 T00251016  RH  075%=      5-min Rain = 0
KBY1 191441Z 13001KT 03/M02 A2994 RMK A01 T00251016  RH  074%=      5-min Rain = 0
KBY1 191442Z 12000KT 03/M02 A2994 RMK A01 T00261015  RH  074%=      5-min Rain = 0
KBY1 191443Z 11001KT 03/M01 A2994 RMK A01 T00281013  RH  074%=      5-min Rain = 0
KBY1 191444Z 08001KT 03/M01 A2994 RMK A01 T00291013  RH  074%=      5-min Rain = 0
KBY1 191445Z 09001KT 03/M01 A2994 RMK A01 T00301014  RH  073%=      5-min Rain = 0
KBY1 191446Z 11001KT 03/M01 A2993 RMK A01 T00301014  RH  073%=      5-min Rain = 0
KBY1 191447Z 11001KT 03/M01 A2993 RMK A01 T00311014  RH  072%=      5-min Rain = 0
KBY1 191448Z 08002KT 03/M01 A2993 RMK A01 T00311014  RH  072%=      5-min Rain = 0
KBY1 191449Z 11002KT 03/M01 A2993 RMK A01 T00321012  RH  073%=      5-min Rain = 0
KBY1 191450Z 09002KT 03/M01 A2993 RMK A01 T00341012  RH  072%=      5-min Rain = 0
KBY1 191451Z 09002KT 04/M01 A2993 RMK A01 T00351012  RH  071%=      5-min Rain = 0
KBY1 191452Z 09002KT 04/M01 A2993 RMK A01 T00351011  RH  072%=      5-min Rain = 0
KBY1 191453Z 07002KT 04/M01 A2993 RMK A01 T00351012  RH  071%=      5-min Rain = 0
KBY1 191454Z 09002KT 03/M01 A2993 RMK A01 T00341013  RH  071%=      5-min Rain = 0
KBY1 191455Z 09001KT 03/M01 A2993 RMK A01 T00331014  RH  071%=      5-min Rain = 0
KBY1 191456Z 09002KT 03/M01 A2993 RMK A01 T00331014  RH  072%=      5-min Rain = 0
KBY1 191457Z 08002KT 03/M01 A2993 RMK A01 T00331014  RH  071%=      5-min Rain = 0
KBY1 191458Z 09002KT 03/M01 A2993 RMK A01 T00341012  RH  072%=      5-min Rain = 0
KBY1 191459Z 09003KT 04/M01 A2993 RMK A01 T00351011  RH  072%=      5-min Rain = 0
KBY1 191500Z 09003KT 04/M01 A2993 RMK A01 T00361012  RH  071%=      5-min Rain = 0
KBY1 191501Z 08003KT 04/M01 A2993 RMK A01 T00361012  RH  071%=      5-min Rain = 0
KBY1 191502Z 09003KT 04/M01 A2993 RMK A01 T00361012  RH  071%=      5-min Rain = 0
KBY1 191503Z 09003KT 04/M01 A2993 RMK A01 T00361010  RH  072%=      5-min Rain = 0
KBY1 191504Z 09003KT 04/M01 A2993 RMK A01 T00371010  RH  071%=      5-min Rain = 0
KBY1 191505Z 09003KT 04/M01 A2993 RMK A01 T00371011  RH  071%=      5-min Rain = 0
KBY1 191506Z 09003KT 04/M01 A2992 RMK A01 T00381009  RH  071%=      5-min Rain = 0
KBY1 191507Z 09003KT 04/M01 A2992 RMK A01 T00391007  RH  072%=      5-min Rain = 0
KBY1 191508Z 08003KT 04/M01 A2992 RMK A01 T00411008  RH  071%=      5-min Rain = 0
KBY1 191509Z 09004KT 04/M01 A2992 RMK A01 T00421008  RH  070%=      5-min Rain = 0
KBY1 191510Z 09003KT 04/M01 A2992 RMK A01 T00421008  RH  070%=      5-min Rain = 0
KBY1 191511Z 09004KT 04/M01 A2992 RMK A01 T00441007  RH  070%=      5-min Rain = 0
KBY1 191512Z 10003KT 05/M01 A2992 RMK A01 T00451006  RH  069%=      5-min Rain = 0
KBY1 191513Z 08003KT 05/M01 A2992 RMK A01 T00461006  RH  069%=      5-min Rain = 0
KBY1 191514Z 07003KT 05/M01 A2992 RMK A01 T00471006  RH  068%=      5-min Rain = 0
KBY1 191515Z 10003KT 05/M01 A2992 RMK A01 T00481006  RH  068%=      5-min Rain = 0
KBY1 191516Z 09002KT 05/M01 A2992 RMK A01 T00491005  RH  068%=      5-min Rain = 0
KBY1 191517Z 10003KT 05/M00 A2992 RMK A01 T00511004  RH  068%=      5-min Rain = 0
KBY1 191518Z 11003KT 05/M00 A2992 RMK A01 T00531003  RH  067%=      5-min Rain = 0
KBY1 191519Z 10003KT 05/M00 A2992 RMK A01 T00541004  RH  066%=      5-min Rain = 0
KBY1 191520Z 10002KT 06/M00 A2992 RMK A01 T00551003  RH  066%=      5-min Rain = 0
KBY1 191521Z 11003KT 06/M00 A2992 RMK A01 T00571003  RH  065%=      5-min Rain = 0
KBY1 191522Z 12003KT 06/M00 A2992 RMK A01 T00581003  RH  065%=      5-min Rain = 0
KBY1 191523Z 11003KT 06/M00 A2992 RMK A01 T00591004  RH  064%=      5-min Rain = 0
KBY1 191524Z 10003KT 06/M00 A2992 RMK A01 T00591003  RH  065%=      5-min Rain = 0
KBY1 191525Z 11004KT 06/M00 A2992 RMK A01 T00611001  RH  065%=      5-min Rain = 0
KBY1 191526Z 10004KT 06/M00 A2992 RMK A01 T00621001  RH  064%=      5-min Rain = 0
KBY1 191527Z 10004KT 06/M00 A2992 RMK A01 T00621003  RH  063%=      5-min Rain = 0
KBY1 191528Z 11003KT 06/M00 A2992 RMK A01 T00611002  RH  064%=      5-min Rain = 0
KBY1 191529Z 09004KT 06/M00 A2991 RMK A01 T00631001  RH  064%=      5-min Rain = 0
KBY1 191530Z 11003KT 06/00 A2991 RMK A01 T006400-0  RH  063%=      5-min Rain = 0
KBY1 191531Z 08003KT 07/M00 A2991 RMK A01 T00651001  RH  063%=      5-min Rain = 0
KBY1 191532Z 08002KT 07/M00 A2991 RMK A01 T00651001  RH  062%=      5-min Rain = 0
KBY1 191533Z 11003KT 07/00 A2991 RMK A01 T006700-0  RH  062%=      5-min Rain = 0
KBY1 191534Z 09002KT 07/M00 A2991 RMK A01 T00681001  RH  062%=      5-min Rain = 0
KBY1 191535Z 10002KT 07/M00 A2991 RMK A01 T00681001  RH  061%=      5-min Rain = 0
KBY1 191536Z 14003KT 07/00 A2991 RMK A01 T00690000  RH  061%=      5-min Rain = 0
KBY1 191537Z 13003KT 07/00 A2991 RMK A01 T00720002  RH  061%=      5-min Rain = 0
KBY1 191538Z 09003KT 07/00 A2991 RMK A01 T00730001  RH  060%=      5-min Rain = 0
KBY1 191539Z 10003KT 07/00 A2991 RMK A01 T00740002  RH  060%=      5-min Rain = 0
KBY1 191540Z 10003KT 07/00 A2991 RMK A01 T00740003  RH  060%=      5-min Rain = 0
KBY1 191541Z 08004KT 08/00 A2991 RMK A01 T00750003  RH  060%=      5-min Rain = 0
KBY1 191542Z 10005KT 08/01 A2991 RMK A01 T00760005  RH  061%=      5-min Rain = 0
KBY1 191543Z 11005KT 08/01 A2991 RMK A01 T00780006  RH  060%=      5-min Rain = 0
KBY1 191544Z 09005KT 08/01 A2991 RMK A01 T00820007  RH  059%=      5-min Rain = 0
KBY1 191545Z 09006KT 09/01 A2991 RMK A01 T00850005  RH  057%=      5-min Rain = 0
KBY1 191546Z 08006KT 09/00 A2991 RMK A01 T00860004  RH  056%=      5-min Rain = 0
KBY1 191547Z 10004KT 09/00 A2991 RMK A01 T00870004  RH  056%=      5-min Rain = 0
KBY1 191548Z 09004KT 09/01 A2991 RMK A01 T00900007  RH  056%=      5-min Rain = 0
KBY1 191549Z 09006KT 09/01 A2991 RMK A01 T00930007  RH  055%=      5-min Rain = 0
KBY1 191550Z 08005KT 09/01 A2991 RMK A01 T00940005  RH  054%=      5-min Rain = 0
KBY1 191551Z 09005KT 09/01 A2991 RMK A01 T00940006  RH  054%=      5-min Rain = 0
KBY1 191552Z 08004KT 10/01 A2991 RMK A01 T00970008  RH  054%=      5-min Rain = 0
KBY1 191553Z 05004KT 10/01 A2991 RMK A01 T00990008  RH  053%=      5-min Rain = 0
KBY1 191554Z 05004KT 10/01 A2991 RMK A01 T00990008  RH  053%=      5-min Rain = 0
KBY1 191555Z 07004KT 10/01 A2991 RMK A01 T01000008  RH  053%=      5-min Rain = 0
KBY1 191556Z 07004KT 10/01 A2991 RMK A01 T01000008  RH  052%=      5-min Rain = 0
KBY1 191557Z 08003KT 10/01 A2991 RMK A01 T01000007  RH  052%=      5-min Rain = 0
KBY1 191558Z 07004KT 10/01 A299 RMK A01 T01010008  RH  052%=      5-min Rain = 0
KBY1 191559Z 07004KT 10/01 A299 RMK A01 T01030010  RH  052%=      5-min Rain = 0
KBY1 191600Z 06004KT 11/01 A299 RMK A01 T01060011  RH  052%=      5-min Rain = 0
KBY1 191601Z 07004KT 11/01 A299 RMK A01 T01080011  RH  051%=      5-min Rain = 0
KBY1 191602Z 07003KT 11/01 A299 RMK A01 T01090011  RH  051%=      5-min Rain = 0
KBY1 191603Z 06005KT 11/01 A299 RMK A01 T01110011  RH  050%=      5-min Rain = 0
KBY1 191604Z 05004KT 11/01 A299 RMK A01 T01140010  RH  049%=      5-min Rain = 0
KBY1 191605Z 07003KT 12/01 A299 RMK A01 T01150012  RH  049%=      5-min Rain = 0
KBY1 191606Z 07004KT 12/01 A299 RMK A01 T01190012  RH  048%=      5-min Rain = 0
KBY1 191607Z 07004KT 12/01 A299 RMK A01 T01220012  RH  047%=      5-min Rain = 0
KBY1 191608Z 07004KT 12/01 A299 RMK A01 T01230012  RH  047%=      5-min Rain = 0
KBY1 191609Z 08005KT 13/01 A299 RMK A01 T01250013  RH  046%=      5-min Rain = 0
KBY1 191610Z 07005KT 13/02 A299 RMK A01 T01280015  RH  046%=      5-min Rain = 0
KBY1 191611Z 07005KT 13/02 A299 RMK A01 T01310015  RH  045%=      5-min Rain = 0
KBY1 191612Z 07005KT 13/01 A299 RMK A01 T01330014  RH  044%=      5-min Rain = 0
KBY1 191613Z 07003KT 14/01 A299 RMK A01 T01350014  RH  044%=      5-min Rain = 0
KBY1 191614Z 07005KT 14/02 A299 RMK A01 T01370015  RH  043%=      5-min Rain = 0
KBY1 191615Z 07006KT 14/01 A299 RMK A01 T01380013  RH  043%=      5-min Rain = 0
KBY1 191616Z 07005KT 14/01 A299 RMK A01 T01380013  RH  042%=      5-min Rain = 0
KBY1 191617Z 07005KT 14/01 A299 RMK A01 T01400014  RH  042%=      5-min Rain = 0
KBY1 191618Z 07005KT 14/02 A299 RMK A01 T01430015  RH  042%=      5-min Rain = 0
KBY1 191619Z 06006KT 15/02 A299 RMK A01 T01450015  RH  041%=      5-min Rain = 0
KBY1 191620Z 06006KT 15/01 A299 RMK A01 T01460014  RH  040%=      5-min Rain = 0
KBY1 191621Z 06005KT 15/01 A299 RMK A01 T01470013  RH  040%=      5-min Rain = 0
KBY1 191622Z 04004KT 15/02 A299 RMK A01 T01490015  RH  040%=      5-min Rain = 0
KBY1 191623Z 04003KT 15/01 A299 RMK A01 T01530014  RH  039%=      5-min Rain = 0
KBY1 191624Z 00003KT 16/01 A2989 RMK A01 T01550009  RH  037%=      5-min Rain = 0
KBY1 191625Z 05004KT 16/01 A2989 RMK A01 T01580010  RH  037%=      5-min Rain = 0
KBY1 191626Z 08002KT 16/01 A2989 RMK A01 T01610009  RH  036%=      5-min Rain = 0
KBY1 191627Z 09002KT 16/01 A2989 RMK A01 T01620007  RH  035%=      5-min Rain = 0
KBY1 191628Z 12002KT 16/01 A2989 RMK A01 T01640009  RH  035%=      5-min Rain = 0
KBY1 191629Z 12001KT 17/01 A2989 RMK A01 T01670009  RH  034%=      5-min Rain = 0
KBY1 191630Z 05000KT 17/01 A2989 RMK A01 T01670006  RH  033%=      5-min Rain = 0
KBY1 191631Z 00000KT 17/01 A2989 RMK A01 T01690007  RH  033%=      5-min Rain = 0
KBY1 191632Z 25001KT 17/01 A2989 RMK A01 T01710006  RH  033%=      5-min Rain = 0
KBY1 191633Z 24001KT 17/01 A2989 RMK A01 T01720007  RH  033%=      5-min Rain = 0
KBY1 191634Z 23000KT 17/01 A2989 RMK A01 T01740006  RH  032%=      5-min Rain = 0
KBY1 191635Z 22003G9KT 18/01 A2989 RMK A01 T01770009  RH  032%=      5-min Rain = 0
KBY1 191636Z 21009G14KT 18/01 A2989 RMK A01 T01820007  RH  031%=      5-min Rain = 0
KBY1 191637Z 21010KT 19/00 A2989 RMK A01 T01920004  RH  028%=      5-min Rain = 0
KBY1 191638Z 21013KT 20/00 A2989 RMK A01 T02000003  RH  027%=      5-min Rain = 0
KBY1 191639Z 21015KT 21/M00 A2989 RMK A01 T02051001  RH  025%=      5-min Rain = 0
KBY1 191640Z 22017G23KT 21/M00 A2989 RMK A01 T02061003  RH  025%=      5-min Rain = 0
KBY1 191641Z 21015KT 21/M00 A2989 RMK A01 T02061002  RH  025%=      5-min Rain = 0
KBY1 191642Z 21016G21KT 21/M00 A2989 RMK A01 T02071002  RH  025%=      5-min Rain = 0
KBY1 191643Z 22019KT 21/M00 A2988 RMK A01 T02071002  RH  025%=      5-min Rain = 0
KBY1 191644Z 22016KT 21/M00 A2988 RMK A01 T02071002  RH  025%=      5-min Rain = 0
KBY1 191645Z 22013KT 21/M00 A2988 RMK A01 T02071001  RH  025%=      5-min Rain = 0
KBY1 191646Z 21015KT 21/M00 A2988 RMK A01 T02081001  RH  025%=      5-min Rain = 0
KBY1 191647Z 21014KT 21/M00 A2988 RMK A01 T02091001  RH  025%=      5-min Rain = 0
KBY1 191648Z 22013KT 21/00 A2988 RMK A01 T02110001  RH  025%=      5-min Rain = 0
KBY1 191649Z 21013KT 21/00 A2988 RMK A01 T02130003  RH  025%=      5-min Rain = 0
KBY1 191650Z 20015KT 21/00 A2988 RMK A01 T02140003  RH  024%=      5-min Rain = 0
KBY1 191651Z 21018KT 21/00 A2988 RMK A01 T02140001  RH  024%=      5-min Rain = 0
KBY1 191652Z 20014G21KT 21/00 A2988 RMK A01 T02120002  RH  025%=      5-min Rain = 0
KBY1 191653Z 20018KT 21/00 A2988 RMK A01 T02120002  RH  025%=      5-min Rain = 0
KBY1 191654Z 20015G21KT 21/00 A2988 RMK A01 T02120002  RH  025%=      5-min Rain = 0
KBY1 191655Z 20014G21KT 21/00 A2988 RMK A01 T02120003  RH  025%=      5-min Rain = 0
KBY1 191656Z 20018KT 21/00 A2988 RMK A01 T02130002  RH  024%=      5-min Rain = 0
KBY1 191657Z 21018KT 21/00 A2988 RMK A01 T02110002  RH  025%=      5-min Rain = 0
KBY1 191658Z 21017KT 21/00 A2988 RMK A01 T02100002  RH  025%=      5-min Rain = 0
KBY1 191659Z 20017G22KT 21/00 A2988 RMK A01 T02090003  RH  025%=      5-min Rain = 0
KBY1 191700Z 20016G22KT 21/00 A2988 RMK A01 T02100003  RH  025%=      5-min Rain = 0
KBY1 191701Z 20015KT 21/00 A2988 RMK A01 T02100003  RH  025%=      5-min Rain = 0
KBY1 191702Z 20013KT 21/00 A2988 RMK A01 T02100003  RH  025%=      5-min Rain = 0
KBY1 191703Z 21011KT 21/01 A2988 RMK A01 T02110005  RH  025%=      5-min Rain = 0
KBY1 191704Z 21011KT 21/01 A2988 RMK A01 T02130005  RH  025%=      5-min Rain = 0
KBY1 191705Z 20013KT 21/01 A2988 RMK A01 T02130005  RH  025%=      5-min Rain = 0
KBY1 191706Z 21015G21KT 21/01 A2988 RMK A01 T02140005  RH  025%=      5-min Rain = 0
KBY1 191707Z 21017KT 21/00 A2988 RMK A01 T02130004  RH  025%=      5-min Rain = 0
KBY1 191708Z 21016KT 21/00 A2988 RMK A01 T02110003  RH  025%=      5-min Rain = 0
KBY1 191709Z 21016KT 21/00 A2988 RMK A01 T02100004  RH  025%=      5-min Rain = 0
KBY1 191710Z 21013KT 21/01 A2988 RMK A01 T02100005  RH  025%=      5-min Rain = 0
KBY1 191711Z 21012KT 21/01 A2988 RMK A01 T02120005  RH  025%=      5-min Rain = 0
KBY1 191712Z 20010G17KT 22/01 A2988 RMK A01 T02150008  RH  025%=      5-min Rain = 0
KBY1 191713Z 21015KT 22/01 A2988 RMK A01 T02180007  RH  025%=      5-min Rain = 0
KBY1 191714Z 21012G19KT 22/01 A2988 RMK A01 T02180008  RH  025%=      5-min Rain = 0
KBY1 191715Z 20016KT 22/01 A2988 RMK A01 T02200008  RH  024%=      5-min Rain = 0
KBY1 191716Z 21016KT 22/01 A2988 RMK A01 T02200006  RH  024%=      5-min Rain = 0
KBY1 191717Z 22018KT 22/01 A2988 RMK A01 T02190006  RH  024%=      5-min Rain = 0
KBY1 191718Z 22017G22KT 22/01 A2988 RMK A01 T02190005  RH  024%=      5-min Rain = 0
KBY1 191719Z 22013KT 22/01 A2988 RMK A01 T02190006  RH  024%=      5-min Rain = 0
KBY1 191720Z 20015KT 22/01 A2988 RMK A01 T02200007  RH  024%=      5-min Rain = 0
KBY1 191721Z 20018KT 22/01 A2988 RMK A01 T02210006  RH  024%=      5-min Rain = 0
KBY1 191722Z 21017KT 22/01 A2988 RMK A01 T02200006  RH  024%=      5-min Rain = 0
KBY1 191723Z 20016KT 22/01 A2987 RMK A01 T02190006  RH  024%=      5-min Rain = 0
KBY1 191724Z 21015KT 22/01 A2987 RMK A01 T02180007  RH  025%=      5-min Rain = 0
KBY1 191725Z 20011KT 22/01 A2987 RMK A01 T02200009  RH  025%=      5-min Rain = 0
KBY1 191726Z 21015KT 22/01 A2987 RMK A01 T02230010  RH  024%=      5-min Rain = 0
KBY1 191727Z 21019KT 22/01 A2987 RMK A01 T02240009  RH  024%=      5-min Rain = 0
KBY1 191728Z 21015KT 22/01 A2987 RMK A01 T02210009  RH  024%=      5-min Rain = 0
KBY1 191729Z 21014KT 22/01 A2987 RMK A01 T02200009  RH  025%=      5-min Rain = 0
KBY1 191730Z 21016KT 22/01 A2987 RMK A01 T02200009  RH  025%=      5-min Rain = 0
KBY1 191731Z 21014KT 22/01 A2987 RMK A01 T02210009  RH  025%=      5-min Rain = 0
KBY1 191732Z 20012KT 22/01 A2987 RMK A01 T02230009  RH  024%=      5-min Rain = 0
KBY1 191733Z 21013KT 23/01 A2987 RMK A01 T02250011  RH  024%=      5-min Rain = 0
KBY1 191734Z 20014KT 23/01 A2987 RMK A01 T02290012  RH  024%=      5-min Rain = 0
KBY1 191735Z 21015KT 23/01 A2986 RMK A01 T02300008  RH  023%=      5-min Rain = 0
KBY1 191736Z 22015KT 23/01 A2986 RMK A01 T02310007  RH  023%=      5-min Rain = 0
KBY1 191737Z 21018KT 23/00 A2986 RMK A01 T02310004  RH  022%=      5-min Rain = 0
KBY1 191738Z 22016KT 23/00 A2986 RMK A01 T02300002  RH  022%=      5-min Rain = 0
KBY1 191739Z 23017G22KT 23/00 A2986 RMK A01 T02280002  RH  022%=      5-min Rain = 0
KBY1 191740Z 22014G19KT 23/00 A2986 RMK A01 T02280002  RH  022%=      5-min Rain = 0
KBY1 191741Z 20011G16KT 23/01 A2986 RMK A01 T02290005  RH  023%=      5-min Rain = 0
KBY1 191742Z 20017KT 23/01 A2986 RMK A01 T02320006  RH  022%=      5-min Rain = 0
KBY1 191743Z 20013KT 23/00 A2986 RMK A01 T02310004  RH  022%=      5-min Rain = 0
KBY1 191744Z 20010G15KT 23/01 A2986 RMK A01 T02320007  RH  023%=      5-min Rain = 0
KBY1 191745Z 21011G16KT 24/01 A2986 RMK A01 T02360009  RH  022%=      5-min Rain = 0
KBY1 191746Z 21017G22KT 24/01 A2986 RMK A01 T02380005  RH  022%=      5-min Rain = 0
KBY1 191747Z 21017KT 24/00 A2986 RMK A01 T02360002  RH  021%=      5-min Rain = 0
KBY1 191748Z 20016KT 23/00 A2986 RMK A01 T02320002  RH  022%=      5-min Rain = 0
KBY1 191749Z 20018G23KT 23/00 A2985 RMK A01 T02310002  RH  022%=      5-min Rain = 0
KBY1 191750Z 21018KT 23/00 A2985 RMK A01 T02300001  RH  022%=      5-min Rain = 0
KBY1 191751Z 22015KT 23/00 A2985 RMK A01 T02280001  RH  022%=      5-min Rain = 0
KBY1 191752Z 21014KT 23/00 A2985 RMK A01 T02290004  RH  022%=      5-min Rain = 0
KBY1 191753Z 20016G24KT 23/00 A2985 RMK A01 T02320004  RH  022%=      5-min Rain = 0
KBY1 191754Z 21019KT 23/00 A2985 RMK A01 T02330003  RH  022%=      5-min Rain = 0
KBY1 191755Z 21018KT 23/00 A2985 RMK A01 T02300002  RH  022%=      5-min Rain = 0
KBY1 191756Z 21017KT 23/00 A2985 RMK A01 T02290003  RH  022%=      5-min Rain = 0
KBY1 191757Z 21019KT 23/00 A2985 RMK A01 T02290003  RH  022%=      5-min Rain = 0
KBY1 191758Z 21019G24KT 23/00 A2985 RMK A01 T02290002  RH  022%=      5-min Rain = 0
KBY1 191759Z 21021KT 23/00 A2985 RMK A01 T02290002  RH  022%=      5-min Rain = 0
KBY1 191800Z 21017KT 23/00 A2985 RMK A01 T02280002  RH  022%=      5-min Rain = 0
KBY1 191801Z 21016KT 23/00 A2985 RMK A01 T02280002  RH  022%=      5-min Rain = 0
KBY1 191802Z 22016G21KT 23/00 A2985 RMK A01 T02290003  RH  022%=      5-min Rain = 0
KBY1 191803Z 22017KT 23/00 A2984 RMK A01 T02300003  RH  022%=      5-min Rain = 0
KBY1 191804Z 22016KT 23/00 A2984 RMK A01 T02290003  RH  022%=      5-min Rain = 0
KBY1 191805Z 21013KT 23/00 A2985 RMK A01 T02290004  RH  022%=      5-min Rain = 0
KBY1 191806Z 20015G20KT 23/00 A2984 RMK A01 T02300004  RH  022%=      5-min Rain = 0
KBY1 191807Z 20016G21KT 23/00 A2984 RMK A01 T02300003  RH  022%=      5-min Rain = 0
KBY1 191808Z 20017KT 23/00 A2984 RMK A01 T02290003  RH  022%=      5-min Rain = 0
KBY1 191809Z 20015G20KT 23/00 A2984 RMK A01 T02300004  RH  022%=      5-min Rain = 0
KBY1 191810Z 20017KT 23/00 A2984 RMK A01 T02310004  RH  022%=      5-min Rain = 0
KBY1 191811Z 20015KT 23/00 A2984 RMK A01 T02320003  RH  022%=      5-min Rain = 0
KBY1 191812Z 21016KT 23/00 A2984 RMK A01 T02320003  RH  022%=      5-min Rain = 0
KBY1 191813Z 21017KT 23/00 A2984 RMK A01 T02310003  RH  022%=      5-min Rain = 0
KBY1 191814Z 22015KT 23/00 A2984 RMK A01 T02310004  RH  022%=      5-min Rain = 0
KBY1 191815Z 22015KT 23/00 A2984 RMK A01 T02310004  RH  022%=      5-min Rain = 0
KBY1 191816Z 20014KT 23/01 A2984 RMK A01 T02300005  RH  023%=      5-min Rain = 0
KBY1 191817Z 19015KT 23/01 A2984 RMK A01 T02310005  RH  022%=      5-min Rain = 0
KBY1 191818Z 20016KT 23/01 A2984 RMK A01 T02310005  RH  022%=      5-min Rain = 0
KBY1 191819Z 20015KT 23/01 A2984 RMK A01 T02300006  RH  023%=      5-min Rain = 0
KBY1 191820Z 20016G22KT 23/01 A2984 RMK A01 T02310007  RH  023%=      5-min Rain = 0
KBY1 191821Z 19015KT 23/01 A2984 RMK A01 T02310006  RH  023%=      5-min Rain = 0
KBY1 191822Z 20015KT 23/01 A2984 RMK A01 T02300006  RH  023%=      5-min Rain = 0
KBY1 191823Z 19012G18KT 23/01 A2984 RMK A01 T02280006  RH  023%=      5-min Rain = 0
KBY1 191824Z 19016KT 23/01 A2983 RMK A01 T02270005  RH  023%=      5-min Rain = 0
KBY1 191825Z 20014KT 23/01 A2983 RMK A01 T02250006  RH  023%=      5-min Rain = 0
KBY1 191826Z 20012KT 23/01 A2983 RMK A01 T02260007  RH  023%=      5-min Rain = 0
KBY1 191827Z 20009KT 23/01 A2983 RMK A01 T02270008  RH  024%=      5-min Rain = 0
KBY1 191828Z 20010KT 23/01 A2983 RMK A01 T02290008  RH  023%=      5-min Rain = 0
KBY1 191829Z 21009KT 23/01 A2983 RMK A01 T02320010  RH  023%=      5-min Rain = 0
KBY1 191830Z 20010KT 23/01 A2983 RMK A01 T02340010  RH  023%=      5-min Rain = 0
KBY1 191831Z 20014KT 24/01 A2983 RMK A01 T02370010  RH  022%=      5-min Rain = 0
KBY1 191832Z 20015KT 24/01 A2982 RMK A01 T02370007  RH  022%=      5-min Rain = 0
KBY1 191833Z 20015KT 24/01 A2982 RMK A01 T02370007  RH  022%=      5-min Rain = 0
KBY1 191834Z 21015KT 24/01 A2982 RMK A01 T02370006  RH  022%=      5-min Rain = 0
KBY1 191835Z 21014KT 24/01 A2982 RMK A01 T02380007  RH  022%=      5-min Rain = 0
KBY1 191836Z 21014KT 24/01 A2982 RMK A01 T02390007  RH  022%=      5-min Rain = 0
KBY1 191837Z 21012KT 24/01 A2982 RMK A01 T02390006  RH  022%=      5-min Rain = 0
KBY1 191838Z 21013G18KT 24/01 A2982 RMK A01 T02400007  RH  022%=      5-min Rain = 0
KBY1 191839Z 20015KT 24/01 A2982 RMK A01 T02430007  RH  021%=      5-min Rain = 0
KBY1 191840Z 19016G21KT 24/01 A2982 RMK A01 T02440005  RH  021%=      5-min Rain = 0
KBY1 191841Z 20016G22KT 25/00 A2982 RMK A01 T02450003  RH  020%=      5-min Rain = 0
KBY1 191842Z 20016KT 25/00 A2981 RMK A01 T02450002  RH  020%=      5-min Rain = 0
KBY1 191843Z 20016G21KT 24/00 A2981 RMK A01 T02440003  RH  020%=      5-min Rain = 0
KBY1 191844Z 20018KT 24/00 A2981 RMK A01 T02420001  RH  020%=      5-min Rain = 0
KBY1 191845Z 21016G21KT 24/00 A2981 RMK A01 T02400002  RH  021%=      5-min Rain = 0
KBY1 191846Z 21011KT 24/00 A2982 RMK A01 T02380002  RH  021%=      5-min Rain = 0
KBY1 191847Z 21015KT 24/00 A2982 RMK A01 T02390002  RH  021%=      5-min Rain = 0
KBY1 191848Z 20014KT 24/00 A2981 RMK A01 T02400003  RH  021%=      5-min Rain = 0
KBY1 191849Z 20014KT 24/00 A2981 RMK A01 T02420002  RH  021%=      5-min Rain = 0
KBY1 191850Z 21011KT 24/00 A2981 RMK A01 T02430004  RH  021%=      5-min Rain = 0
KBY1 191851Z 20015KT 25/00 A2981 RMK A01 T02450002  RH  020%=      5-min Rain = 0
KBY1 191852Z 21017KT 25/00 A2981 RMK A01 T02460002  RH  020%=      5-min Rain = 0
KBY1 191853Z 21015G20KT 24/M00 A2981 RMK A01 T02431001  RH  020%=      5-min Rain = 0
KBY1 191854Z 21016G22KT 24/00 A2981 RMK A01 T024000-0  RH  020%=      5-min Rain = 0
KBY1 191855Z 22015G20KT 24/00 A2981 RMK A01 T024000-0  RH  020%=      5-min Rain = 0
KBY1 191856Z 21014KT 24/00 A2981 RMK A01 T02410001  RH  021%=      5-min Rain = 0
KBY1 191857Z 22013KT 24/00 A2981 RMK A01 T02430003  RH  021%=      5-min Rain = 0
KBY1 191858Z 21015KT 24/00 A2981 RMK A01 T02430003  RH  020%=      5-min Rain = 0
KBY1 191859Z 21015KT 24/00 A2981 RMK A01 T02440003  RH  020%=      5-min Rain = 0
KBY1 191900Z 21012KT 25/01 A2981 RMK A01 T02460005  RH  020%=      5-min Rain = 0
KBY1 191901Z 20013G18KT 25/01 A2981 RMK A01 T02510006  RH  020%=      5-min Rain = 0
KBY1 191902Z 19017KT 25/00 A2981 RMK A01 T02510003  RH  020%=      5-min Rain = 0
KBY1 191903Z 20019KT 25/00 A298 RMK A01 T02480002  RH  020%=      5-min Rain = 0
KBY1 191904Z 20016G21KT 25/00 A298 RMK A01 T02460001  RH  020%=      5-min Rain = 0
KBY1 191905Z 20016KT 25/00 A298 RMK A01 T02470002  RH  020%=      5-min Rain = 0
KBY1 191906Z 21017KT 25/00 A298 RMK A01 T02490002  RH  020%=      5-min Rain = 0
KBY1 191907Z 22017G22KT 25/00 A298 RMK A01 T024900-0  RH  019%=      5-min Rain = 0
KBY1 191908Z 22017KT 25/M00 A298 RMK A01 T02471001  RH  020%=      5-min Rain = 0
KBY1 191909Z 21012KT 25/00 A298 RMK A01 T02450000  RH  020%=      5-min Rain = 0
KBY1 191910Z 21011KT 25/00 A298 RMK A01 T02460003  RH  020%=      5-min Rain = 0
KBY1 191911Z 21014G19KT 25/00 A298 RMK A01 T02490003  RH  020%=      5-min Rain = 0
KBY1 191912Z 21016KT 25/00 A298 RMK A01 T02500002  RH  020%=      5-min Rain = 0
KBY1 191913Z 21013KT 25/00 A298 RMK A01 T02520004  RH  020%=      5-min Rain = 0
KBY1 191914Z 20016KT 25/00 A298 RMK A01 T02530003  RH  019%=      5-min Rain = 0
KBY1 191915Z 19016KT 25/00 A298 RMK A01 T02510001  RH  019%=      5-min Rain = 0
KBY1 191916Z 20013G18KT 25/00 A298 RMK A01 T024800-0  RH  020%=      5-min Rain = 0
KBY1 191917Z 22011KT 25/00 A298 RMK A01 T02490002  RH  020%=      5-min Rain = 0
KBY1 191918Z 22014G19KT 25/M00 A2979 RMK A01 T02531001  RH  019%=      5-min Rain = 0
KBY1 191919Z 22014G19KT 26/M00 A2979 RMK A01 T02561001  RH  019%=      5-min Rain = 0
KBY1 191920Z 21014KT 26/M00 A2979 RMK A01 T02571001  RH  018%=      5-min Rain = 0
KBY1 191921Z 21017KT 26/M00 A2979 RMK A01 T02581001  RH  018%=      5-min Rain = 0
KBY1 191922Z 22018KT 26/M00 A2979 RMK A01 T02591001  RH  018%=      5-min Rain = 0
KBY1 191923Z 21012KT 26/00 A2979 RMK A01 T02580000  RH  018%=      5-min Rain = 0
KBY1 191924Z 22014KT 26/00 A2979 RMK A01 T02620001  RH  018%=      5-min Rain = 0
KBY1 191925Z 21014KT 26/M00 A2979 RMK A01 T02631001  RH  018%=      5-min Rain = 0
KBY1 191926Z 20016KT 26/M00 A2979 RMK A01 T02631001  RH  018%=      5-min Rain = 0
KBY1 191927Z 22014KT 26/M00 A2979 RMK A01 T02631001  RH  018%=      5-min Rain = 0
KBY1 191928Z 22014G19KT 26/M00 A2979 RMK A01 T02631002  RH  018%=      5-min Rain = 0
KBY1 191929Z 22015G21KT 26/M00 A2979 RMK A01 T02631003  RH  018%=      5-min Rain = 0
KBY1 191930Z 23014KT 26/M00 A2979 RMK A01 T02621003  RH  018%=      5-min Rain = 0
KBY1 191931Z 22015G20KT 26/M00 A2978 RMK A01 T02621001  RH  018%=      5-min Rain = 0
KBY1 191932Z 22018G25KT 26/M00 A2978 RMK A01 T02621001  RH  018%=      5-min Rain = 0
KBY1 191933Z 22018KT 26/M00 A2978 RMK A01 T02611001  RH  018%=      5-min Rain = 0
KBY1 191934Z 22019KT 26/M00 A2978 RMK A01 T02601001  RH  018%=      5-min Rain = 0
KBY1 191935Z 20019KT 26/M00 A2978 RMK A01 T02591001  RH  018%=      5-min Rain = 0
KBY1 191936Z 20019G24KT 26/M00 A2978 RMK A01 T02591001  RH  018%=      5-min Rain = 0
KBY1 191937Z 22016KT 26/00 A2978 RMK A01 T02600000  RH  018%=      5-min Rain = 0
KBY1 191938Z 22015KT 26/00 A2978 RMK A01 T02620001  RH  018%=      5-min Rain = 0
KBY1 191939Z 20017KT 26/00 A2978 RMK A01 T02620001  RH  018%=      5-min Rain = 0
KBY1 191940Z 19016G21KT 26/00 A2978 RMK A01 T02630002  RH  018%=      5-min Rain = 0
KBY1 191941Z 19017KT 26/00 A2978 RMK A01 T02640002  RH  018%=      5-min Rain = 0
KBY1 191942Z 19019G24KT 26/00 A2977 RMK A01 T02630000  RH  018%=      5-min Rain = 0
KBY1 191943Z 20017G22KT 26/M00 A2977 RMK A01 T02601001  RH  018%=      5-min Rain = 0
KBY1 191944Z 19020G28KT 26/M00 A2977 RMK A01 T02571001  RH  018%=      5-min Rain = 0
KBY1 191945Z 20020G25KT 26/M00 A2977 RMK A01 T02551002  RH  018%=      5-min Rain = 0
KBY1 191946Z 20017G22KT 25/M00 A2977 RMK A01 T02541002  RH  019%=      5-min Rain = 0
KBY1 191947Z 20015G20KT 25/M00 A2977 RMK A01 T02531002  RH  019%=      5-min Rain = 0
KBY1 191948Z 19017KT 25/M00 A2977 RMK A01 T02541001  RH  019%=      5-min Rain = 0
KBY1 191949Z 20017G22KT 25/M00 A2977 RMK A01 T02541002  RH  019%=      5-min Rain = 0
KBY1 191950Z 20012G17KT 25/M00 A2977 RMK A01 T02541002  RH  019%=      5-min Rain = 0
KBY1 191951Z 20011KT 26/00 A2977 RMK A01 T02560001  RH  019%=      5-min Rain = 0
KBY1 191952Z 19018G23KT 26/00 A2977 RMK A01 T02610001  RH  018%=      5-min Rain = 0
KBY1 191953Z 20017KT 26/M00 A2977 RMK A01 T02621002  RH  018%=      5-min Rain = 0
KBY1 191954Z 21020KT 26/M00 A2977 RMK A01 T02631004  RH  017%=      5-min Rain = 0
KBY1 191955Z 21017KT 26/M01 A2977 RMK A01 T02641006  RH  017%=      5-min Rain = 0
KBY1 191956Z 20016KT 26/M01 A2977 RMK A01 T02641008  RH  017%=      5-min Rain = 0
KBY1 191957Z 22017G22KT 27/M01 A2976 RMK A01 T02661007  RH  017%=      5-min Rain = 0
KBY1 191958Z 22018KT 27/M01 A2976 RMK A01 T02681010  RH  016%=      5-min Rain = 0
KBY1 191959Z 21013KT 27/M01 A2976 RMK A01 T02681009  RH  016%=      5-min Rain = 0
KBY1 192000Z 22016KT 27/M01 A2976 RMK A01 T02711008  RH  016%=      5-min Rain = 0
KBY1 192001Z 21014G19KT 27/M01 A2976 RMK A01 T02711008  RH  016%=      5-min Rain = 0
KBY1 192002Z 19016G21KT 27/M01 A2976 RMK A01 T02721010  RH  016%=      5-min Rain = 0
KBY1 192003Z 21019G24KT 27/M01 A2976 RMK A01 T02731012  RH  015%=      5-min Rain = 0
KBY1 192004Z 21017KT 27/M01 A2976 RMK A01 T02721012  RH  016%=      5-min Rain = 0
KBY1 192005Z 23013KT 27/M01 A2976 RMK A01 T02731011  RH  015%=      5-min Rain = 0
KBY1 192006Z 24014G21KT 28/M01 A2976 RMK A01 T02751011  RH  015%=      5-min Rain = 0
KBY1 192007Z 23017KT 28/M01 A2976 RMK A01 T02751013  RH  015%=      5-min Rain = 0
KBY1 192008Z 22018KT 27/M02 A2976 RMK A01 T02711015  RH  015%=      5-min Rain = 0
KBY1 192009Z 22014KT 27/M02 A2976 RMK A01 T02691015  RH  016%=      5-min Rain = 0
KBY1 192010Z 23014KT 27/M01 A2976 RMK A01 T02691014  RH  016%=      5-min Rain = 0
KBY1 192011Z 22015KT 27/M02 A2975 RMK A01 T02701015  RH  015%=      5-min Rain = 0
KBY1 192012Z 21016G21KT 27/M02 A2976 RMK A01 T02691015  RH  015%=      5-min Rain = 0
KBY1 192013Z 21019KT 27/M01 A2975 RMK A01 T02711014  RH  015%=      5-min Rain = 0
KBY1 192014Z 21014G22KT 27/M01 A2975 RMK A01 T02721014  RH  015%=      5-min Rain = 0
KBY1 192015Z 22012G18KT 27/M01 A2976 RMK A01 T02731013  RH  015%=      5-min Rain = 0
KBY1 192016Z 22015KT 28/M02 A2976 RMK A01 T02751015  RH  015%=      5-min Rain = 0
KBY1 192017Z 22013G19KT 27/M02 A2976 RMK A01 T02731016  RH  015%=      5-min Rain = 0
KBY1 192018Z 21020G27KT 27/M02 A2975 RMK A01 T02711017  RH  015%=      5-min Rain = 0
KBY1 192019Z 22019G27KT 27/M02 A2975 RMK A01 T02691018  RH  015%=      5-min Rain = 0
KBY1 192020Z 22017KT 27/M02 A2975 RMK A01 T02691017  RH  015%=      5-min Rain = 0
KBY1 192021Z 22017G22KT 27/M02 A2975 RMK A01 T02701017  RH  015%=      5-min Rain = 0
KBY1 192022Z 23021KT 27/M02 A2975 RMK A01 T02691018  RH  015%=      5-min Rain = 0
KBY1 192023Z 22018KT 27/M02 A2975 RMK A01 T02681019  RH  015%=      5-min Rain = 0
KBY1 192024Z 21017G23KT 27/M02 A2975 RMK A01 T02671019  RH  015%=      5-min Rain = 0
KBY1 192025Z 23015KT 27/M02 A2975 RMK A01 T02681018  RH  015%=      5-min Rain = 0
KBY1 192026Z 23015KT 27/M02 A2975 RMK A01 T02691019  RH  015%=      5-min Rain = 0
KBY1 192027Z 22014G19KT 27/M02 A2975 RMK A01 T02691019  RH  015%=      5-min Rain = 0
KBY1 192028Z 23017KT 27/M02 A2975 RMK A01 T02691020  RH  015%=      5-min Rain = 0
KBY1 192029Z 23016G23KT 27/M02 A2975 RMK A01 T02691020  RH  015%=      5-min Rain = 0
KBY1 192030Z 22017KT 27/M02 A2975 RMK A01 T02701021  RH  015%=      5-min Rain = 0
KBY1 192031Z 23015G20KT 27/M02 A2975 RMK A01 T02701020  RH  015%=      5-min Rain = 0
KBY1 192032Z 23015KT 27/M02 A2975 RMK A01 T02711020  RH  015%=      5-min Rain = 0
KBY1 192033Z 25016G21KT 27/M02 A2975 RMK A01 T02721019  RH  015%=      5-min Rain = 0
KBY1 192034Z 25017KT 27/M02 A2975 RMK A01 T02731020  RH  015%=      5-min Rain = 0
KBY1 192035Z 25014KT 27/M02 A2975 RMK A01 T02721020  RH  015%=      5-min Rain = 0
KBY1 192036Z 25012KT 27/M02 A2975 RMK A01 T02711020  RH  015%=      5-min Rain = 0
KBY1 192037Z 24012KT 27/M02 A2975 RMK A01 T02721018  RH  015%=      5-min Rain = 0
KBY1 192038Z 23015G20KT 28/M02 A2975 RMK A01 T02751017  RH  015%=      5-min Rain = 0
KBY1 192039Z 24015KT 28/M02 A2975 RMK A01 T02761020  RH  014%=      5-min Rain = 0
KBY1 192040Z 22012KT 28/M02 A2975 RMK A01 T02751020  RH  014%=      5-min Rain = 0
KBY1 192041Z 22016G21KT 28/M02 A2975 RMK A01 T02751020  RH  014%=      5-min Rain = 0
KBY1 192042Z 23017KT 27/M02 A2975 RMK A01 T02741021  RH  014%=      5-min Rain = 0
KBY1 192043Z 23017G24KT 27/M02 A2975 RMK A01 T02721021  RH  014%=      5-min Rain = 0
KBY1 192044Z 23016G21KT 27/M02 A2975 RMK A01 T02711021  RH  015%=      5-min Rain = 0
KBY1 192045Z 23013G18KT 27/M02 A2975 RMK A01 T02721020  RH  015%=      5-min Rain = 0
KBY1 192046Z 24013KT 27/M02 A2975 RMK A01 T02721021  RH  015%=      5-min Rain = 0
KBY1 192047Z 22014KT 27/M02 A2975 RMK A01 T02721021  RH  014%=      5-min Rain = 0
KBY1 192048Z 22015KT 27/M02 A2975 RMK A01 T02721022  RH  014%=      5-min Rain = 0
KBY1 192049Z 22017KT 27/M02 A2975 RMK A01 T02721021  RH  015%=      5-min Rain = 0
KBY1 192050Z 22015KT 27/M02 A2975 RMK A01 T02711022  RH  015%=      5-min Rain = 0
KBY1 192051Z 22014KT 27/M02 A2975 RMK A01 T02711021  RH  015%=      5-min Rain = 0
KBY1 192052Z 23012KT 27/M02 A2975 RMK A01 T02711021  RH  015%=      5-min Rain = 0
KBY1 192053Z 25015G20KT 27/M02 A2975 RMK A01 T02711021  RH  015%=      5-min Rain = 0
KBY1 192054Z 25015KT 27/M02 A2975 RMK A01 T02711022  RH  015%=      5-min Rain = 0
KBY1 192055Z 24018G24KT 27/M02 A2975 RMK A01 T02701021  RH  015%=      5-min Rain = 0
KBY1 192056Z 25017KT 27/M02 A2975 RMK A01 T02691023  RH  015%=      5-min Rain = 0
KBY1 192057Z 25016G23KT 27/M02 A2975 RMK A01 T02681024  RH  015%=      5-min Rain = 0
KBY1 192058Z 23012KT 27/M02 A2975 RMK A01 T02681024  RH  014%=      5-min Rain = 0
KBY1 192059Z 24016KT 27/M02 A2975 RMK A01 T02701023  RH  014%=      5-min Rain = 0
KBY1 192100Z 24016G21KT 27/M02 A2975 RMK A01 T02711023  RH  014%=      5-min Rain = 0
KBY1 192101Z 23017KT 27/M02 A2975 RMK A01 T02711023  RH  014%=      5-min Rain = 0
KBY1 192102Z 23015KT 27/M02 A2975 RMK A01 T02711023  RH  014%=      5-min Rain = 0
KBY1 192103Z 24011KT 27/M02 A2975 RMK A01 T02711023  RH  014%=      5-min Rain = 0
KBY1 192104Z 24011KT 27/M02 A2975 RMK A01 T02711022  RH  014%=      5-min Rain = 0
KBY1 192105Z 23013KT 27/M02 A2975 RMK A01 T02731022  RH  014%=      5-min Rain = 0
KBY1 192106Z 23012KT 27/M02 A2975 RMK A01 T02731022  RH  014%=      5-min Rain = 0
KBY1 192107Z 24011KT 27/M02 A2975 RMK A01 T02741024  RH  014%=      5-min Rain = 0
KBY1 192108Z 24010KT 27/M02 A2975 RMK A01 T02731024  RH  014%=      5-min Rain = 0
KBY1 192109Z 24011KT 27/M02 A2975 RMK A01 T02721023  RH  014%=      5-min Rain = 0
KBY1 192110Z 24016KT 27/M02 A2975 RMK A01 T02731023  RH  014%=      5-min Rain = 0
KBY1 192111Z 25016KT 27/M03 A2975 RMK A01 T02721025  RH  014%=      5-min Rain = 0
KBY1 192112Z 25015KT 27/M02 A2975 RMK A01 T02711024  RH  014%=      5-min Rain = 0
KBY1 192113Z 25014KT 27/M02 A2975 RMK A01 T02701023  RH  014%=      5-min Rain = 0
KBY1 192114Z 24013KT 27/M02 A2975 RMK A01 T02701023  RH  015%=      5-min Rain = 0
KBY1 192115Z 24014KT 27/M02 A2975 RMK A01 T02701023  RH  014%=      5-min Rain = 0
KBY1 192116Z 25014KT 27/M02 A2975 RMK A01 T02711024  RH  014%=      5-min Rain = 0
KBY1 192117Z 24011KT 27/M02 A2975 RMK A01 T02701024  RH  014%=      5-min Rain = 0
KBY1 192118Z 24011G16KT 27/M02 A2975 RMK A01 T02701022  RH  015%=      5-min Rain = 0
KBY1 192119Z 24013KT 27/M02 A2974 RMK A01 T02711023  RH  014%=      5-min Rain = 0
KBY1 192120Z 25012KT 27/M02 A2975 RMK A01 T02721022  RH  014%=      5-min Rain = 0
KBY1 192121Z 24011KT 27/M02 A2974 RMK A01 T02731021  RH  014%=      5-min Rain = 0
KBY1 192122Z 24012KT 27/M02 A2974 RMK A01 T02731022  RH  014%=      5-min Rain = 0
KBY1 192123Z 22014KT 27/M02 A2974 RMK A01 T02731022  RH  014%=      5-min Rain = 0
KBY1 192124Z 23016KT 27/M02 A2974 RMK A01 T02721024  RH  014%=      5-min Rain = 0
KBY1 192125Z 23012G18KT 27/M02 A2974 RMK A01 T02711023  RH  014%=      5-min Rain = 0
KBY1 192126Z 22011KT 27/M02 A2974 RMK A01 T02711022  RH  015%=      5-min Rain = 0
KBY1 192127Z 23010KT 27/M02 A2974 RMK A01 T02721022  RH  014%=      5-min Rain = 0
KBY1 192128Z 24008KT 27/M02 A2974 RMK A01 T02731021  RH  014%=      5-min Rain = 0
KBY1 192129Z 23010KT 27/M02 A2974 RMK A01 T02741021  RH  014%=      5-min Rain = 0
KBY1 192130Z 23010KT 27/M02 A2974 RMK A01 T02741022  RH  014%=      5-min Rain = 0
KBY1 192131Z 23008KT 27/M02 A2974 RMK A01 T02741021  RH  014%=      5-min Rain = 0
KBY1 192132Z 24011KT 28/M02 A2974 RMK A01 T02751020  RH  014%=      5-min Rain = 0
KBY1 192133Z 23011KT 28/M02 A2974 RMK A01 T02751021  RH  014%=      5-min Rain = 0
KBY1 192134Z 24009KT 27/M02 A2974 RMK A01 T02731023  RH  014%=      5-min Rain = 0
KBY1 192135Z 23013G18KT 27/M02 A2974 RMK A01 T02731022  RH  014%=      5-min Rain = 0
KBY1 192136Z 24014KT 27/M02 A2974 RMK A01 T02721023  RH  014%=      5-min Rain = 0
KBY1 192137Z 25011KT 27/M02 A2974 RMK A01 T02711024  RH  014%=      5-min Rain = 0
KBY1 192138Z 24011KT 27/M02 A2974 RMK A01 T02701024  RH  014%=      5-min Rain = 0
KBY1 192139Z 22012KT 27/M02 A2974 RMK A01 T02701024  RH  014%=      5-min Rain = 0
KBY1 192140Z 23010KT 27/M02 A2974 RMK A01 T02701024  RH  014%=      5-min Rain = 0
KBY1 192141Z 21013KT 27/M02 A2974 RMK A01 T02711024  RH  014%=      5-min Rain = 0
KBY1 192142Z 22014KT 27/M02 A2974 RMK A01 T02721024  RH  014%=      5-min Rain = 0
KBY1 192143Z 22016KT 27/M02 A2974 RMK A01 T02721024  RH  014%=      5-min Rain = 0
KBY1 192144Z 23012KT 27/M03 A2974 RMK A01 T02711025  RH  014%=      5-min Rain = 0
KBY1 192145Z 22016KT 27/M03 A2974 RMK A01 T02711025  RH  014%=      5-min Rain = 0
KBY1 192146Z 23013KT 27/M03 A2974 RMK A01 T02701026  RH  014%=      5-min Rain = 0
KBY1 192147Z 23012G17KT 27/M03 A2974 RMK A01 T02701025  RH  014%=      5-min Rain = 0
KBY1 192148Z 23016KT 27/M03 A2974 RMK A01 T02701026  RH  014%=      5-min Rain = 0
KBY1 192149Z 22015KT 27/M03 A2974 RMK A01 T02701027  RH  014%=      5-min Rain = 0
KBY1 192150Z 22014KT 27/M03 A2974 RMK A01 T02691027  RH  014%=      5-min Rain = 0
KBY1 192151Z 23013KT 27/M03 A2974 RMK A01 T02691027  RH  014%=      5-min Rain = 0
KBY1 192152Z 25013G20KT 27/M03 A2974 RMK A01 T02691026  RH  014%=      5-min Rain = 0
KBY1 192153Z 25016KT 27/M03 A2974 RMK A01 T02691027  RH  014%=      5-min Rain = 0
KBY1 192154Z 24015G20KT 27/M03 A2974 RMK A01 T02681029  RH  014%=      5-min Rain = 0
KBY1 192155Z 23014KT 27/M03 A2974 RMK A01 T02681029  RH  014%=      5-min Rain = 0
KBY1 192156Z 23011G16KT 27/M03 A2974 RMK A01 T02681028  RH  014%=      5-min Rain = 0
KBY1 192157Z 23012KT 27/M03 A2974 RMK A01 T02681028  RH  014%=      5-min Rain = 0
KBY1 192158Z 23014KT 27/M03 A2974 RMK A01 T02681028  RH  014%=      5-min Rain = 0
KBY1 192159Z 24014KT 27/M03 A2974 RMK A01 T02671028  RH  014%=      5-min Rain = 0
KBY1 192200Z 24012KT 27/M03 A2974 RMK A01 T02661028  RH  014%=      5-min Rain = 0
KBY1 192201Z 24012KT 26/M03 A2974 RMK A01 T02641029  RH  014%=      5-min Rain = 0
KBY1 192202Z 22012KT 26/M03 A2974 RMK A01 T02641029  RH  014%=      5-min Rain = 0
KBY1 192203Z 24010G15KT 26/M03 A2974 RMK A01 T02631029  RH  014%=      5-min Rain = 0
KBY1 192204Z 23013KT 26/M03 A2974 RMK A01 T02631028  RH  014%=      5-min Rain = 0
KBY1 192205Z 23014KT 26/M03 A2974 RMK A01 T02641030  RH  014%=      5-min Rain = 0
KBY1 192206Z 23012KT 26/M03 A2974 RMK A01 T02641030  RH  014%=      5-min Rain = 0
KBY1 192207Z 22013KT 26/M03 A2974 RMK A01 T02641030  RH  014%=      5-min Rain = 0
KBY1 192208Z 23012G17KT 27/M03 A2974 RMK A01 T02651030  RH  014%=      5-min Rain = 0
KBY1 192209Z 23014KT 27/M03 A2974 RMK A01 T02651030  RH  014%=      5-min Rain = 0
KBY1 192210Z 23013KT 27/M03 A2974 RMK A01 T02661029  RH  014%=      5-min Rain = 0
KBY1 192211Z 23013KT 27/M03 A2974 RMK A01 T02661029  RH  014%=      5-min Rain = 0
KBY1 192212Z 23014KT 27/M03 A2974 RMK A01 T02661028  RH  014%=      5-min Rain = 0
KBY1 192213Z 23011KT 27/M03 A2974 RMK A01 T02661028  RH  014%=      5-min Rain = 0
KBY1 192214Z 23010KT 27/M03 A2974 RMK A01 T02651028  RH  014%=      5-min Rain = 0
KBY1 192215Z 24011KT 27/M03 A2974 RMK A01 T02661027  RH  014%=      5-min Rain = 0
KBY1 192216Z 24012KT 27/M03 A2974 RMK A01 T02661027  RH  014%=      5-min Rain = 0
KBY1 192217Z 24013KT 27/M03 A2974 RMK A01 T02661027  RH  014%=      5-min Rain = 0
KBY1 192218Z 23012KT 27/M03 A2974 RMK A01 T02661028  RH  014%=      5-min Rain = 0
KBY1 192219Z 23011KT 27/M03 A2974 RMK A01 T02661028  RH  014%=      5-min Rain = 0
KBY1 192220Z 22008KT 27/M03 A2974 RMK A01 T02661028  RH  014%=      5-min Rain = 0
KBY1 192221Z 22013KT 27/M03 A2974 RMK A01 T02661029  RH  014%=      5-min Rain = 0
KBY1 192222Z 23010KT 27/M03 A2974 RMK A01 T02661029  RH  014%=      5-min Rain = 0
KBY1 192223Z 23013KT 27/M03 A2974 RMK A01 T02651029  RH  014%=      5-min Rain = 0
KBY1 192224Z 23012KT 27/M03 A2974 RMK A01 T02651029  RH  014%=      5-min Rain = 0
KBY1 192225Z 24012KT 26/M03 A2974 RMK A01 T02641029  RH  014%=      5-min Rain = 0
KBY1 192226Z 24012KT 26/M03 A2974 RMK A01 T02641030  RH  014%=      5-min Rain = 0
KBY1 192227Z 24011KT 26/M03 A2974 RMK A01 T02641030  RH  014%=      5-min Rain = 0
KBY1 192228Z 23011KT 26/M03 A2974 RMK A01 T02641029  RH  014%=      5-min Rain = 0
KBY1 192229Z 23010KT 26/M03 A2974 RMK A01 T02641029  RH  014%=      5-min Rain = 0
KBY1 192230Z 23009KT 26/M03 A2974 RMK A01 T02641028  RH  014%=      5-min Rain = 0
KBY1 192231Z 23008KT 26/M03 A2974 RMK A01 T02641028  RH  014%=      5-min Rain = 0
KBY1 192232Z 24008KT 26/M03 A2974 RMK A01 T02641028  RH  014%=      5-min Rain = 0
KBY1 192233Z 23011KT 26/M03 A2974 RMK A01 T02641028  RH  014%=      5-min Rain = 0
KBY1 192234Z 24008G14KT 26/M03 A2974 RMK A01 T02631029  RH  014%=      5-min Rain = 0
KBY1 192235Z 23007KT 26/M03 A2974 RMK A01 T02631028  RH  015%=      5-min Rain = 0
KBY1 192236Z 24008KT 26/M03 A2974 RMK A01 T02631028  RH  015%=      5-min Rain = 0
KBY1 192237Z 23010KT 26/M03 A2974 RMK A01 T02631029  RH  015%=      5-min Rain = 0
KBY1 192238Z 23010KT 26/M03 A2973 RMK A01 T02621030  RH  014%=      5-min Rain = 0
KBY1 192239Z 23009KT 26/M03 A2973 RMK A01 T02621029  RH  015%=      5-min Rain = 0
KBY1 192240Z 23010KT 26/M03 A2973 RMK A01 T02611030  RH  015%=      5-min Rain = 0
KBY1 192241Z 23009KT 26/M03 A2973 RMK A01 T02611030  RH  014%=      5-min Rain = 0
KBY1 192242Z 23007KT 26/M03 A2973 RMK A01 T02611030  RH  015%=      5-min Rain = 0
KBY1 192243Z 24008KT 26/M03 A2973 RMK A01 T02611028  RH  015%=      5-min Rain = 0
KBY1 192244Z 24008KT 26/M03 A2973 RMK A01 T02601029  RH  015%=      5-min Rain = 0
KBY1 192245Z 23008KT 26/M03 A2973 RMK A01 T02601029  RH  015%=      5-min Rain = 0
KBY1 192246Z 23005KT 26/M03 A2973 RMK A01 T02601029  RH  015%=      5-min Rain = 0
KBY1 192247Z 23007KT 26/M03 A2973 RMK A01 T02591029  RH  015%=      5-min Rain = 0
KBY1 192248Z 22006KT 26/M03 A2973 RMK A01 T02591029  RH  015%=      5-min Rain = 0
KBY1 192249Z 23008KT 26/M03 A2973 RMK A01 T02591029  RH  015%=      5-min Rain = 0
KBY1 192250Z 22007KT 26/M03 A2973 RMK A01 T02581029  RH  015%=      5-min Rain = 0
KBY1 192251Z 23007KT 26/M03 A2973 RMK A01 T02581029  RH  015%=      5-min Rain = 0
KBY1 192252Z 23006KT 26/M03 A2973 RMK A01 T02571029  RH  015%=      5-min Rain = 0
KBY1 192253Z 22005KT 26/M03 A2973 RMK A01 T02571029  RH  015%=      5-min Rain = 0
KBY1 192254Z 22005KT 26/M03 A2973 RMK A01 T02561029  RH  015%=      5-min Rain = 0
KBY1 192255Z 23006KT 26/M03 A2973 RMK A01 T02561029  RH  015%=      5-min Rain = 0
KBY1 192256Z 22005KT 26/M03 A2973 RMK A01 T02551029  RH  015%=      5-min Rain = 0
KBY1 192257Z 22005KT 26/M03 A2973 RMK A01 T02551029  RH  015%=      5-min Rain = 0
KBY1 192258Z 22005KT 25/M03 A2973 RMK A01 T02541029  RH  015%=      5-min Rain = 0
KBY1 192259Z 21005KT 25/M03 A2973 RMK A01 T02531029  RH  015%=      5-min Rain = 0
KBY1 192300Z 21007KT 25/M03 A2973 RMK A01 T02521029  RH  015%=      5-min Rain = 0
KBY1 192301Z 21007KT 25/M03 A2973 RMK A01 T02521030  RH  015%=      5-min Rain = 0
KBY1 192302Z 22006KT 25/M03 A2973 RMK A01 T02511030  RH  015%=      5-min Rain = 0
KBY1 192303Z 22005KT 25/M03 A2973 RMK A01 T02501029  RH  016%=      5-min Rain = 0
KBY1 192304Z 21005KT 25/M03 A2973 RMK A01 T02491030  RH  016%=      5-min Rain = 0
KBY1 192305Z 21005KT 25/M03 A2973 RMK A01 T02481030  RH  016%=      5-min Rain = 0
KBY1 192306Z 21006KT 25/M03 A2973 RMK A01 T02471030  RH  016%=      5-min Rain = 0
KBY1 192307Z 22006KT 25/M03 A2973 RMK A01 T02461030  RH  016%=      5-min Rain = 0
KBY1 192308Z 21005KT 25/M03 A2973 RMK A01 T02451030  RH  016%=      5-min Rain = 0
KBY1 192309Z 22005KT 24/M03 A2973 RMK A01 T02441030  RH  016%=      5-min Rain = 0
KBY1 192310Z 21005KT 24/M03 A2973 RMK A01 T02431030  RH  016%=      5-min Rain = 0
KBY1 192311Z 22006KT 24/M03 A2973 RMK A01 T02421030  RH  016%=      5-min Rain = 0
KBY1 192312Z 22005KT 24/M03 A2973 RMK A01 T02411031  RH  016%=      5-min Rain = 0
KBY1 192313Z 22005KT 24/M03 A2973 RMK A01 T02401031  RH  016%=      5-min Rain = 0
KBY1 192314Z 22005KT 24/M03 A2973 RMK A01 T02401031  RH  016%=      5-min Rain = 0
KBY1 192315Z 22005KT 24/M03 A2973 RMK A01 T02391031  RH  016%=      5-min Rain = 0
KBY1 192316Z 22005KT 24/M03 A2973 RMK A01 T02381031  RH  017%=      5-min Rain = 0
KBY1 192317Z 21005KT 24/M03 A2973 RMK A01 T02361032  RH  017%=      5-min Rain = 0
KBY1 192318Z 22005KT 23/M03 A2973 RMK A01 T02341032  RH  017%=      5-min Rain = 0
KBY1 192319Z 21005KT 23/M03 A2973 RMK A01 T02321033  RH  017%=      5-min Rain = 0
KBY1 192320Z 21005KT 23/M03 A2973 RMK A01 T02311032  RH  017%=      5-min Rain = 0
KBY1 192321Z 21005KT 23/M03 A2973 RMK A01 T02291033  RH  017%=      5-min Rain = 0
KBY1 192322Z 21005KT 23/M03 A2973 RMK A01 T02281033  RH  017%=      5-min Rain = 0
KBY1 192323Z 21004KT 23/M03 A2973 RMK A01 T02261033  RH  017%=      5-min Rain = 0
KBY1 192324Z 21005KT 23/M03 A2973 RMK A01 T02251033  RH  018%=      5-min Rain = 0
KBY1 192325Z 20005KT 22/M03 A2973 RMK A01 T02241033  RH  018%=      5-min Rain = 0
KBY1 192326Z 20005KT 22/M03 A2973 RMK A01 T02221034  RH  018%=      5-min Rain = 0
KBY1 192327Z 20004KT 22/M03 A2973 RMK A01 T02201034  RH  018%=      5-min Rain = 0
KBY1 192328Z 20005KT 22/M03 A2973 RMK A01 T02181034  RH  018%=      5-min Rain = 0
KBY1 192329Z 19005KT 22/M03 A2973 RMK A01 T02161034  RH  018%=      5-min Rain = 0
KBY1 192330Z 20005KT 22/M03 A2973 RMK A01 T02151034  RH  019%=      5-min Rain = 0
KBY1 192331Z 19004KT 21/M03 A2973 RMK A01 T02141034  RH  019%=      5-min Rain = 0
KBY1 192332Z 20004KT 21/M03 A2973 RMK A01 T02131034  RH  019%=      5-min Rain = 0
KBY1 192333Z 19004KT 21/M03 A2973 RMK A01 T02131033  RH  019%=      5-min Rain = 0
KBY1 192334Z 19003KT 21/M03 A2973 RMK A01 T02131033  RH  019%=      5-min Rain = 0
KBY1 192335Z 19002KT 21/M03 A2973 RMK A01 T02121033  RH  019%=      5-min Rain = 0
KBY1 192336Z 20002KT 21/M03 A2973 RMK A01 T02121033  RH  019%=      5-min Rain = 0
KBY1 192337Z 18002KT 21/M03 A2973 RMK A01 T02121033  RH  019%=      5-min Rain = 0
KBY1 192338Z 17001KT 21/M03 A2973 RMK A01 T02111033  RH  019%=      5-min Rain = 0
KBY1 192339Z 17001KT 21/M03 A2973 RMK A01 T02101033  RH  019%=      5-min Rain = 0
KBY1 192340Z 16000KT 21/M03 A2974 RMK A01 T02101032  RH  019%=      5-min Rain = 0
KBY1 192341Z 16000KT 21/M03 A2974 RMK A01 T02081032  RH  020%=      5-min Rain = 0
KBY1 192342Z 16001KT 21/M03 A2974 RMK A01 T02061033  RH  020%=      5-min Rain = 0
KBY1 192343Z 15001KT 20/M03 A2974 RMK A01 T02041033  RH  020%=      5-min Rain = 0
KBY1 192344Z 16001KT 20/M03 A2974 RMK A01 T02031033  RH  020%=      5-min Rain = 0
KBY1 192345Z 16001KT 20/M03 A2974 RMK A01 T02021033  RH  020%=      5-min Rain = 0
KBY1 192346Z 16001KT 20/M03 A2974 RMK A01 T02011033  RH  020%=      5-min Rain = 0
KBY1 192347Z 16001KT 20/M03 A2974 RMK A01 T02001033  RH  020%=      5-min Rain = 0
KBY1 192348Z 15000KT 20/M03 A2974 RMK A01 T01991033  RH  021%=      5-min Rain = 0
KBY1 192349Z 15000KT 20/M03 A2974 RMK A01 T01991033  RH  021%=      5-min Rain = 0
KBY1 192350Z 16001KT 20/M03 A2974 RMK A01 T01981033  RH  021%=      5-min Rain = 0
KBY1 192351Z 15002KT 20/M03 A2974 RMK A01 T01971033  RH  021%=      5-min Rain = 0
KBY1 192352Z 15002KT 20/M03 A2974 RMK A01 T01961033  RH  021%=      5-min Rain = 0
KBY1 192353Z 14000KT 20/M03 A2974 RMK A01 T01951033  RH  021%=      5-min Rain = 0
KBY1 192354Z 00000KT 19/M03 A2974 RMK A01 T01941033  RH  021%=      5-min Rain = 0
KBY1 192355Z 15000KT 19/M03 A2974 RMK A01 T01921033  RH  021%=      5-min Rain = 0
KBY1 192356Z 14000KT 19/M03 A2974 RMK A01 T01901033  RH  022%=      5-min Rain = 0
KBY1 192357Z 15001KT 19/M03 A2974 RMK A01 T01871033  RH  022%=      5-min Rain = 0
KBY1 192358Z 15002KT 19/M03 A2974 RMK A01 T01851033  RH  023%=      5-min Rain = 0
KBY1 192359Z 15002KT 18/M03 A2974 RMK A01 T01831033  RH  023%=      5-min Rain = 0
KBY1 200000Z 15001KT 18/M03 A2974 RMK A01 T01811032  RH  023%=      5-min Rain = 0
KBY1 200001Z 15002KT 18/M03 A2974 RMK A01 T01801032  RH  023%=      5-min Rain = 0
KBY1 200002Z 16002KT 18/M03 A2974 RMK A01 T01791031  RH  024%=      5-min Rain = 0
KBY1 200003Z 16003KT 18/M03 A2974 RMK A01 T01791031  RH  024%=      5-min Rain = 0
KBY1 200004Z 17002KT 18/M03 A2974 RMK A01 T01781030  RH  024%=      5-min Rain = 0
KBY1 200005Z 17002KT 18/M03 A2974 RMK A01 T01781029  RH  024%=      5-min Rain = 0
KBY1 200006Z 17002KT 18/M03 A2974 RMK A01 T01771029  RH  025%=      5-min Rain = 0
KBY1 200007Z 17002KT 18/M03 A2974 RMK A01 T01761028  RH  025%=      5-min Rain = 0
KBY1 200008Z 16002KT 18/M03 A2974 RMK A01 T01751027  RH  025%=      5-min Rain = 0
KBY1 200009Z 17003KT 18/M03 A2974 RMK A01 T01751027  RH  025%=      5-min Rain = 0
KBY1 200010Z 17002KT 17/M03 A2974 RMK A01 T01741026  RH  025%=      5-min Rain = 0
KBY1 200011Z 17002KT 17/M03 A2974 RMK A01 T01741026  RH  025%=      5-min Rain = 0
KBY1 200012Z 18002KT 17/M03 A2974 RMK A01 T01731026  RH  026%=      5-min Rain = 0
KBY1 200013Z 17002KT 17/M03 A2974 RMK A01 T01731025  RH  026%=      5-min Rain = 0
KBY1 200014Z 17002KT 17/M03 A2974 RMK A01 T01721025  RH  026%=      5-min Rain = 0
KBY1 200015Z 19002KT 17/M02 A2974 RMK A01 T01721024  RH  026%=      5-min Rain = 0
KBY1 200016Z 19004KT 17/M02 A2974 RMK A01 T01711023  RH  026%=      5-min Rain = 0
KBY1 200017Z 19003KT 17/M02 A2974 RMK A01 T01711023  RH  027%=      5-min Rain = 0
KBY1 200018Z 18003KT 17/M02 A2974 RMK A01 T01701022  RH  027%=      5-min Rain = 0
KBY1 200019Z 18004KT 17/M02 A2974 RMK A01 T01701021  RH  027%=      5-min Rain = 0
KBY1 200020Z 18004KT 17/M02 A2974 RMK A01 T01701020  RH  027%=      5-min Rain = 0
KBY1 200021Z 18004KT 17/M02 A2974 RMK A01 T01691020  RH  027%=      5-min Rain = 0
KBY1 200022Z 17004KT 17/M02 A2974 RMK A01 T01691019  RH  028%=      5-min Rain = 0
KBY1 200023Z 17003KT 17/M02 A2974 RMK A01 T01691019  RH  028%=      5-min Rain = 0
KBY1 200024Z 17003KT 17/M02 A2974 RMK A01 T01691019  RH  028%=      5-min Rain = 0
KBY1 200025Z 16003KT 17/M02 A2974 RMK A01 T01691018  RH  028%=      5-min Rain = 0
KBY1 200026Z 17003KT 17/M02 A2974 RMK A01 T01681018  RH  028%=      5-min Rain = 0
KBY1 200027Z 17003KT 17/M02 A2974 RMK A01 T01681018  RH  028%=      5-min Rain = 0
KBY1 200028Z 17003KT 17/M02 A2974 RMK A01 T01681017  RH  028%=      5-min Rain = 0
KBY1 200029Z 16002KT 17/M02 A2974 RMK A01 T01681018  RH  028%=      5-min Rain = 0
KBY1 200030Z 14002KT 17/M02 A2974 RMK A01 T01661018  RH  028%=      5-min Rain = 0
KBY1 200031Z 13001KT 17/M02 A2974 RMK A01 T01651019  RH  028%=      5-min Rain = 0
KBY1 200032Z 13002KT 16/M02 A2974 RMK A01 T01631020  RH  029%=      5-min Rain = 0
KBY1 200033Z 11002KT 16/M02 A2974 RMK A01 T01601020  RH  029%=      5-min Rain = 0
KBY1 200034Z 10002KT 16/M02 A2974 RMK A01 T01591019  RH  029%=      5-min Rain = 0
KBY1 200035Z 10002KT 16/M02 A2974 RMK A01 T01591018  RH  030%=      5-min Rain = 0
KBY1 200036Z 11003KT 16/M02 A2974 RMK A01 T01591018  RH  030%=      5-min Rain = 0
KBY1 200037Z 10003KT 16/M02 A2974 RMK A01 T01591018  RH  030%=      5-min Rain = 0
KBY1 200038Z 09003KT 16/M02 A2974 RMK A01 T01591018  RH  030%=      5-min Rain = 0
KBY1 200039Z 10003KT 16/M02 A2974 RMK A01 T01581018  RH  030%=      5-min Rain = 0
KBY1 200040Z 10003KT 16/M02 A2974 RMK A01 T01561018  RH  030%=      5-min Rain = 0
KBY1 200041Z 10003KT 16/M02 A2974 RMK A01 T01561018  RH  030%=      5-min Rain = 0
KBY1 200042Z 10003KT 15/M02 A2974 RMK A01 T01541018  RH  031%=      5-min Rain = 0
KBY1 200043Z 11003KT 15/M02 A2974 RMK A01 T01531018  RH  031%=      5-min Rain = 0
KBY1 200044Z 13002KT 15/M02 A2974 RMK A01 T01511018  RH  031%=      5-min Rain = 0
KBY1 200045Z 13003KT 15/M02 A2974 RMK A01 T01501018  RH  031%=      5-min Rain = 0
KBY1 200046Z 14003KT 15/M02 A2974 RMK A01 T01491018  RH  032%=      5-min Rain = 0
KBY1 200047Z 15003KT 15/M02 A2974 RMK A01 T01481018  RH  032%=      5-min Rain = 0
KBY1 200048Z 16003KT 15/M02 A2974 RMK A01 T01481018  RH  032%=      5-min Rain = 0
KBY1 200049Z 16003KT 15/M02 A2974 RMK A01 T01471018  RH  032%=      5-min Rain = 0
KBY1 200050Z 16004KT 15/M02 A2974 RMK A01 T01471018  RH  032%=      5-min Rain = 0
KBY1 200051Z 16003KT 15/M02 A2974 RMK A01 T01471018  RH  032%=      5-min Rain = 0
KBY1 200052Z 15003KT 15/M02 A2974 RMK A01 T01471018  RH  032%=      5-min Rain = 0
KBY1 200053Z 16004KT 15/M02 A2974 RMK A01 T01471019  RH  032%=      5-min Rain = 0
KBY1 200054Z 16003KT 15/M02 A2974 RMK A01 T01451019  RH  032%=      5-min Rain = 0
KBY1 200055Z 16003KT 15/M02 A2974 RMK A01 T01451019  RH  032%=      5-min Rain = 0
KBY1 200056Z 16004KT 14/M02 A2974 RMK A01 T01441019  RH  032%=      5-min Rain = 0
KBY1 200057Z 16003KT 14/M02 A2974 RMK A01 T01441019  RH  032%=      5-min Rain = 0
KBY1 200058Z 16003KT 14/M02 A2974 RMK A01 T01441019  RH  032%=      5-min Rain = 0
KBY1 200059Z 14004KT 14/M02 A2974 RMK A01 T01431020  RH  033%=      5-min Rain = 0
KBY1 200100Z 12005KT 14/M02 A2974 RMK A01 T01401020  RH  033%=      5-min Rain = 0
KBY1 200101Z 11005KT 14/M02 A2974 RMK A01 T01381020  RH  033%=      5-min Rain = 0
KBY1 200102Z 10006KT 14/M02 A2975 RMK A01 T01351020  RH  034%=      5-min Rain = 0
KBY1 200103Z 10007KT 13/M02 A2975 RMK A01 T01311020  RH  035%=      5-min Rain = 0
KBY1 200104Z 11006KT 13/M02 A2975 RMK A01 T01271019  RH  036%=      5-min Rain = 0
KBY1 200105Z 11006KT 13/M02 A2975 RMK A01 T01251019  RH  037%=      5-min Rain = 0
KBY1 200106Z 09005KT 13/M02 A2975 RMK A01 T01261018  RH  037%=      5-min Rain = 0
KBY1 200107Z 09004KT 13/M02 A2975 RMK A01 T01291016  RH  037%=      5-min Rain = 0
KBY1 200108Z 09004KT 13/M02 A2975 RMK A01 T01301017  RH  036%=      5-min Rain = 0
KBY1 200109Z 08003KT 13/M02 A2975 RMK A01 T01291016  RH  036%=      5-min Rain = 0
KBY1 200110Z 06004KT 13/M02 A2975 RMK A01 T01291016  RH  037%=      5-min Rain = 0
KBY1 200111Z 06003KT 13/M01 A2975 RMK A01 T01331014  RH  036%=      5-min Rain = 0
KBY1 200112Z 07002KT 14/M01 A2975 RMK A01 T01381014  RH  035%=      5-min Rain = 0
KBY1 200113Z 05002KT 14/M01 A2975 RMK A01 T01411014  RH  034%=      5-min Rain = 0
KBY1 200114Z 05002KT 14/M01 A2975 RMK A01 T01441014  RH  034%=      5-min Rain = 0
KBY1 200115Z 07002KT 15/M01 A2975 RMK A01 T01461014  RH  033%=      5-min Rain = 0
KBY1 200116Z 06003KT 15/M01 A2975 RMK A01 T01481014  RH  033%=      5-min Rain = 0
KBY1 200117Z 07003KT 15/M02 A2975 RMK A01 T01471016  RH  033%=      5-min Rain = 0
KBY1 200118Z 06002KT 14/M02 A2975 RMK A01 T01421018  RH  033%=      5-min Rain = 0
KBY1 200119Z 05002KT 14/M02 A2975 RMK A01 T01371018  RH  034%=      5-min Rain = 0
KBY1 200120Z 06003KT 14/M02 A2975 RMK A01 T01361017  RH  035%=      5-min Rain = 0
KBY1 200121Z 05003KT 14/M02 A2975 RMK A01 T01361016  RH  035%=      5-min Rain = 0
KBY1 200122Z 05003KT 14/M01 A2975 RMK A01 T01391014  RH  035%=      5-min Rain = 0
KBY1 200123Z 04003KT 14/M01 A2975 RMK A01 T01431014  RH  034%=      5-min Rain = 0
KBY1 200124Z 05002KT 15/M01 A2975 RMK A01 T01451014  RH  034%=      5-min Rain = 0
KBY1 200125Z 05003KT 15/M01 A2975 RMK A01 T01461014  RH  033%=      5-min Rain = 0
KBY1 200126Z 05002KT 15/M01 A2975 RMK A01 T01481013  RH  033%=      5-min Rain = 0
KBY1 200127Z 06002KT 15/M01 A2975 RMK A01 T01511014  RH  032%=      5-min Rain = 0
KBY1 200128Z 05002KT 15/M01 A2975 RMK A01 T01541013  RH  032%=      5-min Rain = 0
KBY1 200129Z 06002KT 15/M01 A2975 RMK A01 T01541014  RH  032%=      5-min Rain = 0
KBY1 200130Z 05002KT 15/M02 A2975 RMK A01 T01531015  RH  032%=      5-min Rain = 0
KBY1 200131Z 08002KT 15/M02 A2975 RMK A01 T01531015  RH  032%=      5-min Rain = 0
KBY1 200132Z 07003KT 15/M01 A2975 RMK A01 T01541014  RH  032%=      5-min Rain = 0
KBY1 200133Z 08003KT 16/M01 A2975 RMK A01 T01561014  RH  031%=      5-min Rain = 0
KBY1 200134Z 08003KT 16/M01 A2975 RMK A01 T01571014  RH  031%=      5-min Rain = 0
KBY1 200135Z 08003KT 16/M01 A2975 RMK A01 T01591014  RH  031%=      5-min Rain = 0
KBY1 200136Z 09003KT 16/M02 A2975 RMK A01 T01581015  RH  031%=      5-min Rain = 0
KBY1 200137Z 10003KT 15/M02 A2975 RMK A01 T01541016  RH  031%=      5-min Rain = 0
KBY1 200138Z 11004KT 15/M02 A2975 RMK A01 T01521016  RH  032%=      5-min Rain = 0
KBY1 200139Z 10004KT 15/M02 A2975 RMK A01 T01471017  RH  032%=      5-min Rain = 0
KBY1 200140Z 11004KT 14/M02 A2975 RMK A01 T01411018  RH  033%=      5-min Rain = 0
KBY1 200141Z 10004KT 14/M02 A2975 RMK A01 T01361018  RH  035%=      5-min Rain = 0
KBY1 200142Z 09003KT 13/M02 A2975 RMK A01 T01331017  RH  035%=      5-min Rain = 0
KBY1 200143Z 11003KT 13/M02 A2975 RMK A01 T01321016  RH  036%=      5-min Rain = 0
KBY1 200144Z 10002KT 13/M02 A2975 RMK A01 T01331016  RH  036%=      5-min Rain = 0
KBY1 200145Z 10002KT 14/M01 A2975 RMK A01 T01361014  RH  035%=      5-min Rain = 0
KBY1 200146Z 11003KT 14/M01 A2975 RMK A01 T01391014  RH  035%=      5-min Rain = 0
KBY1 200147Z 11003KT 14/M01 A2975 RMK A01 T01421014  RH  034%=      5-min Rain = 0
KBY1 200148Z 12003KT 14/M01 A2975 RMK A01 T01441014  RH  034%=      5-min Rain = 0
KBY1 200149Z 11003KT 15/M02 A2975 RMK A01 T01451015  RH  033%=      5-min Rain = 0
KBY1 200150Z 12005KT 14/M02 A2975 RMK A01 T01441015  RH  033%=      5-min Rain = 0
KBY1 200151Z 11004KT 14/M02 A2974 RMK A01 T01431015  RH  034%=      5-min Rain = 0
KBY1 200152Z 13005KT 14/M02 A2975 RMK A01 T01441015  RH  033%=      5-min Rain = 0
KBY1 200153Z 09004KT 15/M02 A2975 RMK A01 T01471015  RH  033%=      5-min Rain = 0
KBY1 200154Z 09003KT 15/M01 A2974 RMK A01 T01471014  RH  033%=      5-min Rain = 0
KBY1 200155Z 09003KT 15/M01 A2974 RMK A01 T01471013  RH  033%=      5-min Rain = 0
KBY1 200156Z 11003KT 15/M01 A2974 RMK A01 T01491013  RH  033%=      5-min Rain = 0
KBY1 200157Z 11002KT 15/M01 A2974 RMK A01 T01501013  RH  033%=      5-min Rain = 0
KBY1 200158Z 12003KT 15/M01 A2974 RMK A01 T01501013  RH  033%=      5-min Rain = 0
KBY1 200159Z 13003KT 15/M01 A2974 RMK A01 T01491013  RH  033%=      5-min Rain = 0
KBY1 200200Z 13002KT 15/M01 A2974 RMK A01 T01471014  RH  033%=      5-min Rain = 0
KBY1 200201Z 11002KT 15/M02 A2974 RMK A01 T01461015  RH  033%=      5-min Rain = 0
KBY1 200202Z 12002KT 15/M01 A2974 RMK A01 T01461014  RH  033%=      5-min Rain = 0
KBY1 200203Z 12002KT 15/M01 A2974 RMK A01 T01471014  RH  033%=      5-min Rain = 0
KBY1 200204Z 08000KT 15/M01 A2974 RMK A01 T01491014  RH  033%=      5-min Rain = 0
KBY1 200205Z 11001KT 15/M01 A2975 RMK A01 T01491014  RH  032%=      5-min Rain = 0
KBY1 200206Z 11002KT 15/M01 A2975 RMK A01 T01521014  RH  032%=      5-min Rain = 0
KBY1 200207Z 09000KT 15/M01 A2975 RMK A01 T01541014  RH  032%=      5-min Rain = 0
KBY1 200208Z 02001KT 15/M01 A2975 RMK A01 T01541014  RH  032%=      5-min Rain = 0
KBY1 200209Z 34001KT 15/M01 A2975 RMK A01 T01541014  RH  032%=      5-min Rain = 0
KBY1 200210Z 31001KT 15/M02 A2975 RMK A01 T01511016  RH  032%=      5-min Rain = 0
KBY1 200211Z 12000KT 15/M02 A2975 RMK A01 T01481016  RH  032%=      5-min Rain = 0
KBY1 200212Z 14002KT 15/M02 A2975 RMK A01 T01481016  RH  032%=      5-min Rain = 0
KBY1 200213Z 13003KT 15/M02 A2975 RMK A01 T01481016  RH  032%=      5-min Rain = 0
KBY1 200214Z 13003KT 15/M02 A2975 RMK A01 T01491015  RH  032%=      5-min Rain = 0
KBY1 200215Z 12002KT 15/M01 A2975 RMK A01 T01511014  RH  032%=      5-min Rain = 0
KBY1 200216Z 13003KT 15/M02 A2975 RMK A01 T01511015  RH  032%=      5-min Rain = 0
KBY1 200217Z 11002KT 15/M02 A2975 RMK A01 T01501015  RH  032%=      5-min Rain = 0
KBY1 200218Z 11003KT 15/M02 A2975 RMK A01 T01491016  RH  032%=      5-min Rain = 0
KBY1 200219Z 12002KT 15/M02 A2975 RMK A01 T01481016  RH  032%=      5-min Rain = 0
KBY1 200220Z 09001KT 15/M02 A2975 RMK A01 T01471016  RH  033%=      5-min Rain = 0
KBY1 200221Z 11004KT 15/M02 A2975 RMK A01 T01471016  RH  033%=      5-min Rain = 0
KBY1 200222Z 12003KT 15/M02 A2975 RMK A01 T01491015  RH  032%=      5-min Rain = 0
KBY1 200223Z 10001KT 15/M02 A2975 RMK A01 T01511015  RH  032%=      5-min Rain = 0
KBY1 200224Z 06002KT 15/M02 A2975 RMK A01 T01511016  RH  032%=      5-min Rain = 0
KBY1 200225Z 11001KT 15/M02 A2975 RMK A01 T01491016  RH  032%=      5-min Rain = 0
KBY1 200226Z 04001KT 15/M02 A2975 RMK A01 T01501015  RH  032%=      5-min Rain = 0
KBY1 200227Z 08000KT 15/M02 A2975 RMK A01 T01521015  RH  032%=      5-min Rain = 0
KBY1 200228Z 05001KT 15/M02 A2975 RMK A01 T01521016  RH  032%=      5-min Rain = 0
KBY1 200229Z 04001KT 15/M02 A2975 RMK A01 T01511016  RH  032%=      5-min Rain = 0
KBY1 200230Z 03002KT 15/M02 A2975 RMK A01 T01511016  RH  032%=      5-min Rain = 0
KBY1 200231Z 03002KT 15/M02 A2975 RMK A01 T01491016  RH  032%=      5-min Rain = 0
KBY1 200232Z 03002KT 15/M02 A2975 RMK A01 T01491016  RH  032%=      5-min Rain = 0
KBY1 200233Z 04001KT 15/M02 A2975 RMK A01 T01471017  RH  032%=      5-min Rain = 0
KBY1 200234Z 04002KT 15/M02 A2975 RMK A01 T01451017  RH  033%=      5-min Rain = 0
KBY1 200235Z 04003KT 15/M02 A2975 RMK A01 T01471016  RH  033%=      5-min Rain = 0
KBY1 200236Z 03003KT 15/M02 A2975 RMK A01 T01511015  RH  032%=      5-min Rain = 0
KBY1 200237Z 03002KT 15/M02 A2975 RMK A01 T01521015  RH  032%=      5-min Rain = 0
KBY1 200238Z 04003KT 15/M02 A2975 RMK A01 T01511016  RH  032%=      5-min Rain = 0
KBY1 200239Z 06003KT 15/M02 A2975 RMK A01 T01481017  RH  032%=      5-min Rain = 0
KBY1 200240Z 05002KT 15/M02 A2975 RMK A01 T01481017  RH  032%=      5-min Rain = 0
KBY1 200241Z 04002KT 15/M02 A2975 RMK A01 T01511015  RH  032%=      5-min Rain = 0
KBY1 200242Z 08002KT 15/M02 A2975 RMK A01 T01531015  RH  032%=      5-min Rain = 0
KBY1 200243Z 12001KT 15/M02 A2975 RMK A01 T01531016  RH  031%=      5-min Rain = 0
KBY1 200244Z 10001KT 15/M02 A2975 RMK A01 T01531015  RH  031%=      5-min Rain = 0
KBY1 200245Z 11002KT 15/M02 A2975 RMK A01 T01541015  RH  031%=      5-min Rain = 0
KBY1 200246Z 07001KT 15/M02 A2975 RMK A01 T01531015  RH  031%=      5-min Rain = 0
KBY1 200247Z 14002KT 15/M02 A2975 RMK A01 T01511016  RH  032%=      5-min Rain = 0
KBY1 200248Z 16004KT 15/M02 A2975 RMK A01 T01471017  RH  032%=      5-min Rain = 0
KBY1 200249Z 18003KT 15/M02 A2975 RMK A01 T01461017  RH  033%=      5-min Rain = 0
KBY1 200250Z 18003KT 14/M02 A2975 RMK A01 T01441017  RH  033%=      5-min Rain = 0
KBY1 200251Z 18005KT 14/M02 A2975 RMK A01 T01431017  RH  033%=      5-min Rain = 0
KBY1 200252Z 19006KT 14/M02 A2975 RMK A01 T01431017  RH  033%=      5-min Rain = 0
KBY1 200253Z 18004KT 14/M02 A2975 RMK A01 T01431015  RH  034%=      5-min Rain = 0
KBY1 200254Z 18002KT 15/M01 A2975 RMK A01 T01451014  RH  033%=      5-min Rain = 0
KBY1 200255Z 14001KT 15/M01 A2975 RMK A01 T01461014  RH  033%=      5-min Rain = 0
KBY1 200256Z 15001KT 15/M01 A2975 RMK A01 T01471014  RH  033%=      5-min Rain = 0
KBY1 200257Z 14001KT 15/M02 A2975 RMK A01 T01471015  RH  033%=      5-min Rain = 0
KBY1 200258Z 14002KT 15/M02 A2975 RMK A01 T01481015  RH  033%=      5-min Rain = 0
KBY1 200259Z 14002KT 15/M02 A2975 RMK A01 T01481015  RH  032%=      5-min Rain = 0
KBY1 200300Z 12002KT 15/M02 A2975 RMK A01 T01471015  RH  033%=      5-min Rain = 0
KBY1 200301Z 12002KT 15/M02 A2975 RMK A01 T01471015  RH  033%=      5-min Rain = 0
KBY1 200302Z 13003KT 15/M02 A2975 RMK A01 T01451016  RH  033%=      5-min Rain = 0
KBY1 200303Z 11002KT 14/M02 A2975 RMK A01 T01441016  RH  033%=      5-min Rain = 0
KBY1 200304Z 11002KT 14/M02 A2975 RMK A01 T01441015  RH  033%=      5-min Rain = 0
KBY1 200305Z 12002KT 14/M02 A2975 RMK A01 T01431016  RH  033%=      5-min Rain = 0
KBY1 200306Z 10002KT 14/M02 A2975 RMK A01 T01421017  RH  033%=      5-min Rain = 0
KBY1 200307Z 10002KT 14/M02 A2975 RMK A01 T01391016  RH  034%=      5-min Rain = 0
KBY1 200308Z 11002KT 14/M02 A2975 RMK A01 T01361016  RH  035%=      5-min Rain = 0
KBY1 200309Z 11003KT 13/M02 A2975 RMK A01 T01341015  RH  036%=      5-min Rain = 0
KBY1 200310Z 13003KT 13/M01 A2975 RMK A01 T01331014  RH  036%=      5-min Rain = 0
KBY1 200311Z 12003KT 13/M01 A2975 RMK A01 T01331014  RH  036%=      5-min Rain = 0
KBY1 200312Z 11002KT 13/M01 A2975 RMK A01 T01331014  RH  036%=      5-min Rain = 0
KBY1 200313Z 08002KT 13/M01 A2975 RMK A01 T01341013  RH  036%=      5-min Rain = 0
KBY1 200314Z 10002KT 13/M01 A2975 RMK A01 T01341013  RH  036%=      5-min Rain = 0
KBY1 200315Z 10002KT 13/M01 A2975 RMK A01 T01331013  RH  036%=      5-min Rain = 0
KBY1 200316Z 13003KT 13/M01 A2975 RMK A01 T01321012  RH  037%=      5-min Rain = 0
KBY1 200317Z 17003KT 14/M01 A2975 RMK A01 T01351012  RH  036%=      5-min Rain = 0
KBY1 200318Z 19003KT 14/M01 A2975 RMK A01 T01381013  RH  035%=      5-min Rain = 0
KBY1 200319Z 17003KT 14/M01 A2975 RMK A01 T01391013  RH  035%=      5-min Rain = 0
KBY1 200320Z 17005G10KT 14/M01 A2975 RMK A01 T01401013  RH  035%=      5-min Rain = 0
KBY1 200321Z 18007KT 14/M01 A2975 RMK A01 T01411012  RH  035%=      5-min Rain = 0
KBY1 200322Z 19006KT 14/M01 A2975 RMK A01 T01441011  RH  034%=      5-min Rain = 0
KBY1 200323Z 17006KT 15/M01 A2975 RMK A01 T01471010  RH  034%=      5-min Rain = 0
KBY1 200324Z 16007KT 15/M01 A2975 RMK A01 T01491010  RH  034%=      5-min Rain = 0
KBY1 200325Z 17008KT 15/M01 A2975 RMK A01 T01501010  RH  033%=      5-min Rain = 0
KBY1 200326Z 16005KT 15/M01 A2975 RMK A01 T01511009  RH  033%=      5-min Rain = 0
KBY1 200327Z 16004KT 15/M01 A2975 RMK A01 T01511010  RH  033%=      5-min Rain = 0
KBY1 200328Z 17005KT 15/M01 A2975 RMK A01 T01511010  RH  033%=      5-min Rain = 0
KBY1 200329Z 16003KT 15/M01 A2975 RMK A01 T01501010  RH  033%=      5-min Rain = 0
KBY1 200330Z 19003KT 15/M01 A2975 RMK A01 T01491011  RH  033%=      5-min Rain = 0
KBY1 200331Z 18004KT 15/M01 A2975 RMK A01 T01491011  RH  033%=      5-min Rain = 0
KBY1 200332Z 20003KT 15/M01 A2975 RMK A01 T01491011  RH  033%=      5-min Rain = 0
KBY1 200333Z 18007KT 15/M01 A2975 RMK A01 T01501011  RH  033%=      5-min Rain = 0
KBY1 200334Z 19004KT 15/M01 A2975 RMK A01 T01511010  RH  033%=      5-min Rain = 0
KBY1 200335Z 18007KT 15/M01 A2975 RMK A01 T01521010  RH  033%=      5-min Rain = 0
KBY1 200336Z 18006KT 15/M01 A2975 RMK A01 T01531010  RH  033%=      5-min Rain = 0
KBY1 200337Z 19006KT 15/M01 A2975 RMK A01 T01541010  RH  032%=      5-min Rain = 0
KBY1 200338Z 19008KT 15/M01 A2975 RMK A01 T01541010  RH  032%=      5-min Rain = 0
KBY1 200339Z 19006KT 16/M01 A2975 RMK A01 T01551010  RH  032%=      5-min Rain = 0
KBY1 200340Z 19005KT 16/M01 A2975 RMK A01 T01561010  RH  032%=      5-min Rain = 0
KBY1 200341Z 19005KT 16/M01 A2975 RMK A01 T01561010  RH  032%=      5-min Rain = 0
KBY1 200342Z 19004KT 16/M01 A2975 RMK A01 T01561010  RH  032%=      5-min Rain = 0
KBY1 200343Z 19004KT 16/M01 A2975 RMK A01 T01551010  RH  032%=      5-min Rain = 0
KBY1 200344Z 20003KT 16/M01 A2975 RMK A01 T01551010  RH  032%=      5-min Rain = 0
KBY1 200345Z 19005KT 15/M01 A2975 RMK A01 T01541011  RH  032%=      5-min Rain = 0
KBY1 200346Z 18003KT 16/M01 A2975 RMK A01 T01551011  RH  032%=      5-min Rain = 0
KBY1 200347Z 17003KT 16/M01 A2975 RMK A01 T01551011  RH  032%=      5-min Rain = 0
KBY1 200348Z 18005KT 15/M01 A2975 RMK A01 T01541011  RH  032%=      5-min Rain = 0
KBY1 200349Z 19005KT 15/M01 A2975 RMK A01 T01541012  RH  032%=      5-min Rain = 0
KBY1 200350Z 18002KT 15/M01 A2975 RMK A01 T01541012  RH  032%=      5-min Rain = 0
KBY1 200351Z 18003G8KT 16/M01 A2975 RMK A01 T01551012  RH  032%=      5-min Rain = 0
KBY1 200352Z 19003KT 16/M01 A2975 RMK A01 T01551012  RH  032%=      5-min Rain = 0
KBY1 200353Z 17003KT 16/M01 A2975 RMK A01 T01551012  RH  032%=      5-min Rain = 0
KBY1 200354Z 18004KT 16/M01 A2975 RMK A01 T01561012  RH  032%=      5-min Rain = 0
KBY1 200355Z 19004KT 16/M01 A2975 RMK A01 T01571013  RH  031%=      5-min Rain = 0
KBY1 200356Z 18004KT 16/M01 A2975 RMK A01 T01581013  RH  031%=      5-min Rain = 0
KBY1 200357Z 17003KT 16/M01 A2975 RMK A01 T01581013  RH  031%=      5-min Rain = 0
KBY1 200358Z 18004KT 16/M01 A2975 RMK A01 T01581013  RH  031%=      5-min Rain = 0
KBY1 200359Z 16004KT 16/M01 A2975 RMK A01 T01581014  RH  031%=      5-min Rain = 0
KBY1 200400Z 24001KT 16/M01 A2975 RMK A01 T01571014  RH  031%=      5-min Rain = 0
KBY1 200401Z 18000KT 16/M01 A2976 RMK A01 T01551014  RH  031%=      5-min Rain = 0
KBY1 200402Z 19000KT 15/M01 A2976 RMK A01 T01531014  RH  032%=      5-min Rain = 0
KBY1 200403Z 11001KT 15/M01 A2976 RMK A01 T01531014  RH  032%=      5-min Rain = 0
KBY1 200404Z 04002KT 15/M01 A2975 RMK A01 T01521014  RH  032%=      5-min Rain = 0
KBY1 200405Z 02002KT 15/M02 A2976 RMK A01 T01501015  RH  032%=      5-min Rain = 0
KBY1 200406Z 01002KT 15/M02 A2975 RMK A01 T01471015  RH  033%=      5-min Rain = 0
KBY1 200407Z 02003KT 14/M02 A2975 RMK A01 T01441015  RH  033%=      5-min Rain = 0
KBY1 200408Z 02002KT 14/M01 A2975 RMK A01 T01411014  RH  034%=      5-min Rain = 0
KBY1 200409Z 36002KT 14/M01 A2975 RMK A01 T01401014  RH  035%=      5-min Rain = 0
KBY1 200410Z 36004KT 14/M01 A2975 RMK A01 T01381014  RH  035%=      5-min Rain = 0
KBY1 200411Z 34004KT 14/M01 A2975 RMK A01 T01371013  RH  035%=      5-min Rain = 0
KBY1 200412Z 33005KT 14/M01 A2975 RMK A01 T01401012  RH  035%=      5-min Rain = 0
KBY1 200413Z 33006KT 14/M01 A2975 RMK A01 T01391013  RH  035%=      5-min Rain = 0
KBY1 200414Z 34004KT 14/M01 A2975 RMK A01 T01391013  RH  035%=      5-min Rain = 0
KBY1 200415Z 31002KT 14/M01 A2975 RMK A01 T01431014  RH  034%=      5-min Rain = 0
KBY1 200416Z 31003KT 15/M01 A2975 RMK A01 T01471013  RH  033%=      5-min Rain = 0
KBY1 200417Z 30002KT 15/M01 A2975 RMK A01 T01481013  RH  033%=      5-min Rain = 0
KBY1 200418Z 22002KT 15/M01 A2975 RMK A01 T01491013  RH  033%=      5-min Rain = 0
KBY1 200419Z 18004KT 15/M01 A2975 RMK A01 T01481014  RH  033%=      5-min Rain = 0
KBY1 200420Z 18003KT 15/M01 A2975 RMK A01 T01471014  RH  033%=      5-min Rain = 0
KBY1 200421Z 19004KT 15/M01 A2975 RMK A01 T01461014  RH  033%=      5-min Rain = 0
KBY1 200422Z 20006KT 15/M02 A2975 RMK A01 T01481015  RH  033%=      5-min Rain = 0
KBY1 200423Z 20008G13KT 15/M01 A2974 RMK A01 T01541013  RH  032%=      5-min Rain = 0
KBY1 200424Z 20009KT 16/M01 A2974 RMK A01 T01611013  RH  030%=      5-min Rain = 0
KBY1 200425Z 19008KT 17/M01 A2974 RMK A01 T01661014  RH  029%=      5-min Rain = 0
KBY1 200426Z 20008KT 17/M01 A2974 RMK A01 T01681013  RH  029%=      5-min Rain = 0
KBY1 200427Z 20009G15KT 17/M01 A2974 RMK A01 T01691013  RH  029%=      5-min Rain = 0
KBY1 200428Z 20010KT 17/M01 A2974 RMK A01 T01701013  RH  029%=      5-min Rain = 0
KBY1 200429Z 21010KT 17/M01 A2974 RMK A01 T01711013  RH  029%=      5-min Rain = 0
KBY1 200430Z 20013KT 17/M01 A2974 RMK A01 T01711013  RH  028%=      5-min Rain = 0
KBY1 200431Z 21009KT 17/M01 A2974 RMK A01 T01721013  RH  028%=      5-min Rain = 0
KBY1 200432Z 21012KT 17/M01 A2974 RMK A01 T01731013  RH  028%=      5-min Rain = 0
KBY1 200433Z 21012KT 17/M01 A2974 RMK A01 T01731013  RH  028%=      5-min Rain = 0
KBY1 200434Z 21012KT 17/M01 A2974 RMK A01 T01741013  RH  028%=      5-min Rain = 0
KBY1 200435Z 21012KT 17/M01 A2974 RMK A01 T01741013  RH  028%=      5-min Rain = 0
KBY1 200436Z 21012KT 18/M01 A2974 RMK A01 T01751013  RH  028%=      5-min Rain = 0
KBY1 200437Z 21010G16KT 18/M01 A2974 RMK A01 T01751013  RH  028%=      5-min Rain = 0
KBY1 200438Z 21012KT 18/M01 A2974 RMK A01 T01751013  RH  028%=      5-min Rain = 0
KBY1 200439Z 21010KT 18/M01 A2974 RMK A01 T01751013  RH  028%=      5-min Rain = 0
KBY1 200440Z 21013KT 18/M01 A2973 RMK A01 T01751013  RH  028%=      5-min Rain = 0
KBY1 200441Z 22013KT 18/M01 A2974 RMK A01 T01761013  RH  028%=      5-min Rain = 0
KBY1 200442Z 21014G19KT 18/M01 A2973 RMK A01 T01761013  RH  028%=      5-min Rain = 0
KBY1 200443Z 21012G17KT 18/M01 A2973 RMK A01 T01771013  RH  027%=      5-min Rain = 0
KBY1 200444Z 21013KT 18/M01 A2973 RMK A01 T01781013  RH  027%=      5-min Rain = 0
KBY1 200445Z 21015G20KT 18/M01 A2973 RMK A01 T01781013  RH  027%=      5-min Rain = 0
KBY1 200446Z 21017KT 18/M01 A2973 RMK A01 T01781013  RH  027%=      5-min Rain = 0
KBY1 200447Z 21015KT 18/M01 A2973 RMK A01 T01791013  RH  027%=      5-min Rain = 0
KBY1 200448Z 21016KT 18/M01 A2973 RMK A01 T01791013  RH  027%=      5-min Rain = 0
KBY1 200449Z 21016G22KT 18/M01 A2973 RMK A01 T01791013  RH  027%=      5-min Rain = 0
KBY1 200450Z 21017KT 18/M01 A2973 RMK A01 T01791013  RH  027%=      5-min Rain = 0
KBY1 200451Z 21018KT 18/M01 A2973 RMK A01 T01791013  RH  027%=      5-min Rain = 0
KBY1 200452Z 21015KT 18/M01 A2973 RMK A01 T01791013  RH  027%=      5-min Rain = 0
KBY1 200453Z 21014G19KT 18/M01 A2973 RMK A01 T01781013  RH  027%=      5-min Rain = 0
KBY1 200454Z 21012KT 18/M01 A2973 RMK A01 T01781013  RH  027%=      5-min Rain = 0
KBY1 200455Z 21015KT 18/M01 A2973 RMK A01 T01761013  RH  028%=      5-min Rain = 0
KBY1 200456Z 21015KT 18/M01 A2973 RMK A01 T01751013  RH  028%=      5-min Rain = 0
KBY1 200457Z 21015KT 18/M01 A2973 RMK A01 T01751013  RH  028%=      5-min Rain = 0
KBY1 200458Z 21014G19KT 18/M01 A2973 RMK A01 T01751013  RH  028%=      5-min Rain = 0
KBY1 200459Z 21016KT 17/M01 A2973 RMK A01 T01741013  RH  028%=      5-min Rain = 0
KBY1 200500Z 21012KT 17/M01 A2973 RMK A01 T01741013  RH  028%=      5-min Rain = 0
KBY1 200501Z 21016KT 17/M01 A2973 RMK A01 T01731013  RH  028%=      5-min Rain = 0
KBY1 200502Z 21016G21KT 17/M01 A2973 RMK A01 T01731013  RH  028%=      5-min Rain = 0
KBY1 200503Z 21013KT 17/M01 A2973 RMK A01 T01741013  RH  028%=      5-min Rain = 0
KBY1 200504Z 21013KT 17/M01 A2973 RMK A01 T01731013  RH  028%=      5-min Rain = 0
KBY1 200505Z 21016G21KT 17/M01 A2973 RMK A01 T01721013  RH  028%=      5-min Rain = 0
KBY1 200506Z 21015KT 17/M01 A2973 RMK A01 T01721013  RH  028%=      5-min Rain = 0
KBY1 200507Z 21015KT 17/M01 A2973 RMK A01 T01731014  RH  028%=      5-min Rain = 0
KBY1 200508Z 21014G19KT 17/M01 A2973 RMK A01 T01741013  RH  028%=      5-min Rain = 0
KBY1 200509Z 21013G18KT 17/M01 A2973 RMK A01 T01741013  RH  028%=      5-min Rain = 0
KBY1 200510Z 21016KT 17/M01 A2973 RMK A01 T01731013  RH  028%=      5-min Rain = 0
KBY1 200511Z 21015KT 17/M01 A2973 RMK A01 T01731013  RH  028%=      5-min Rain = 0
KBY1 200512Z 21014G19KT 17/M01 A2973 RMK A01 T01731013  RH  028%=      5-min Rain = 0
KBY1 200513Z 21013KT 17/M01 A2973 RMK A01 T01731013  RH  028%=      5-min Rain = 0
KBY1 200514Z 21014KT 17/M01 A2973 RMK A01 T01731013  RH  028%=      5-min Rain = 0
KBY1 200515Z 21015KT 17/M01 A2973 RMK A01 T01731014  RH  028%=      5-min Rain = 0
KBY1 200516Z 21014KT 17/M01 A2973 RMK A01 T01731013  RH  028%=      5-min Rain = 0
KBY1 200517Z 21014KT 17/M01 A2973 RMK A01 T01741014  RH  028%=      5-min Rain = 0
KBY1 200518Z 21012KT 17/M01 A2973 RMK A01 T01741013  RH  028%=      5-min Rain = 0
KBY1 200519Z 21010KT 17/M01 A2973 RMK A01 T01731014  RH  028%=      5-min Rain = 0
KBY1 200520Z 21012KT 17/M01 A2973 RMK A01 T01721014  RH  028%=      5-min Rain = 0
KBY1 200521Z 21013KT 17/M01 A2973 RMK A01 T01711014  RH  028%=      5-min Rain = 0
KBY1 200522Z 21010KT 17/M01 A2973 RMK A01 T01711014  RH  028%=      5-min Rain = 0
KBY1 200523Z 22012G18KT 17/M01 A2973 RMK A01 T01711014  RH  028%=      5-min Rain = 0
KBY1 200524Z 21015KT 17/M01 A2973 RMK A01 T01711014  RH  028%=      5-min Rain = 0
KBY1 200525Z 21011KT 17/M01 A2973 RMK A01 T01731014  RH  028%=      5-min Rain = 0
KBY1 200526Z 21011KT 17/M01 A2973 RMK A01 T01731014  RH  028%=      5-min Rain = 0
KBY1 200527Z 21014KT 17/M01 A2973 RMK A01 T01731014  RH  028%=      5-min Rain = 0
KBY1 200528Z 21014G19KT 17/M01 A2973 RMK A01 T01731014  RH  028%=      5-min Rain = 0
KBY1 200529Z 21013KT 17/M01 A2973 RMK A01 T01741014  RH  028%=      5-min Rain = 0
KBY1 200530Z 21015KT 18/M01 A2973 RMK A01 T01751014  RH  028%=      5-min Rain = 0
KBY1 200531Z 21013KT 18/M01 A2973 RMK A01 T01751014  RH  028%=      5-min Rain = 0
KBY1 200532Z 21014KT 18/M01 A2973 RMK A01 T01751014  RH  028%=      5-min Rain = 0
KBY1 200533Z 21013KT 18/M01 A2973 RMK A01 T01751014  RH  028%=      5-min Rain = 0
KBY1 200534Z 21012KT 17/M01 A2973 RMK A01 T01741014  RH  028%=      5-min Rain = 0
KBY1 200535Z 21011KT 17/M01 A2973 RMK A01 T01741014  RH  028%=      5-min Rain = 0
KBY1 200536Z 21010KT 17/M01 A2973 RMK A01 T01731014  RH  028%=      5-min Rain = 0
KBY1 200537Z 21011KT 17/M01 A2973 RMK A01 T01731014  RH  028%=      5-min Rain = 0
KBY1 200538Z 21012KT 17/M01 A2973 RMK A01 T01721014  RH  028%=      5-min Rain = 0
KBY1 200539Z 21011KT 17/M01 A2973 RMK A01 T01721014  RH  028%=      5-min Rain = 0
KBY1 200540Z 20011G16KT 17/M01 A2973 RMK A01 T01731014  RH  028%=      5-min Rain = 0
KBY1 200541Z 21012KT 17/M01 A2973 RMK A01 T01721014  RH  028%=      5-min Rain = 0
KBY1 200542Z 21012G18KT 17/M02 A2973 RMK A01 T01721015  RH  028%=      5-min Rain = 0
KBY1 200543Z 20013KT 17/M01 A2973 RMK A01 T01731014  RH  028%=      5-min Rain = 0
KBY1 200544Z 20014KT 17/M01 A2973 RMK A01 T01731014  RH  028%=      5-min Rain = 0
KBY1 200545Z 21012KT 17/M02 A2973 RMK A01 T01731015  RH  028%=      5-min Rain = 0
KBY1 200546Z 20015KT 17/M01 A2973 RMK A01 T01741014  RH  028%=      5-min Rain = 0
KBY1 200547Z 20011KT 17/M02 A2973 RMK A01 T01741015  RH  027%=      5-min Rain = 0
KBY1 200548Z 20009KT 17/M02 A2973 RMK A01 T01741015  RH  028%=      5-min Rain = 0
KBY1 200549Z 21012G17KT 17/M02 A2973 RMK A01 T01731015  RH  028%=      5-min Rain = 0
KBY1 200550Z 21014KT 17/M02 A2973 RMK A01 T01721015  RH  028%=      5-min Rain = 0
KBY1 200551Z 21013KT 17/M02 A2973 RMK A01 T01721015  RH  028%=      5-min Rain = 0
KBY1 200552Z 21014KT 17/M02 A2973 RMK A01 T01711015  RH  028%=      5-min Rain = 0
KBY1 200553Z 21014KT 17/M02 A2973 RMK A01 T01711015  RH  028%=      5-min Rain = 0
KBY1 200554Z 21015KT 17/M02 A2973 RMK A01 T01711015  RH  028%=      5-min Rain = 0
KBY1 200555Z 21015KT 17/M01 A2973 RMK A01 T01711014  RH  028%=      5-min Rain = 0
KBY1 200556Z 21015KT 17/M02 A2973 RMK A01 T01711015  RH  028%=      5-min Rain = 0
KBY1 200557Z 21013KT 17/M02 A2973 RMK A01 T01711015  RH  028%=      5-min Rain = 0
KBY1 200558Z 21011KT 17/M02 A2973 RMK A01 T01711015  RH  028%=      5-min Rain = 0
KBY1 200559Z 21012KT 17/M02 A2973 RMK A01 T01701015  RH  028%=      5-min Rain = 0

Page generated in 0.131 seconds.